Time,TemperatureF,DewpointF,PressureIn,WindDirection,WindDirectionDegrees,WindSpeedMPH,WindSpeedGustMPH,Humidity,HourlyPrecipIn,Conditions,Clouds,dailyrainin,SoftwareType,DateUTC
2013-01-16 00:00:00,32.2,31.7,30.15,ENE,59,0.0,0.0,98,0.00,,,0.00,Wunderground v.1.15,2013-01-16 05:00:00,
2013-01-16 00:02:00,32.2,31.7,30.15,ENE,59,0.0,0.0,98,0.00,,,0.00,Wunderground v.1.15,2013-01-16 05:02:00,
2013-01-16 00:03:00,32.2,31.7,30.15,ENE,59,0.0,0.0,98,0.00,,,0.00,Wunderground v.1.15,2013-01-16 05:03:00,
2013-01-16 00:04:00,32.2,31.7,30.15,ENE,59,0.0,0.0,98,0.00,,,0.00,Wunderground v.1.15,2013-01-16 05:04:00,
2013-01-16 00:06:00,32.3,31.8,30.16,ENE,59,0.0,0.0,98,0.00,,,0.00,Wunderground v.1.15,2013-01-16 05:06:00,
2013-01-16 00:08:00,32.3,31.8,30.16,ENE,59,0.0,0.0,98,0.00,,,0.00,Wunderground v.1.15,2013-01-16 05:08:00,
2013-01-16 00:09:00,32.3,31.8,30.16,ENE,59,0.0,0.0,98,0.00,,,0.00,Wunderground v.1.15,2013-01-16 05:09:00,
2013-01-16 00:11:00,32.3,31.8,30.16,ENE,59,0.0,0.0,98,0.00,,,0.00,Wunderground v.1.15,2013-01-16 05:11:00,
2013-01-16 00:16:00,32.3,31.8,30.17,ENE,59,0.0,0.0,98,0.00,,,0.00,Wunderground v.1.15,2013-01-16 05:16:00,
2013-01-16 00:17:00,32.3,31.8,30.17,ENE,59,0.0,0.0,98,0.00,,,0.00,Wunderground v.1.15,2013-01-16 05:17:00,
2013-01-16 00:18:00,32.3,31.8,30.16,ENE,59,0.0,0.0,98,0.00,,,0.00,Wunderground v.1.15,2013-01-16 05:18:00,
2013-01-16 00:22:00,32.3,31.8,30.15,ENE,59,0.0,0.0,98,0.00,,,0.01,Wunderground v.1.15,2013-01-16 05:22:00,
2013-01-16 00:23:00,32.4,31.9,30.15,ENE,59,0.0,0.0,98,0.00,,,0.01,Wunderground v.1.15,2013-01-16 05:23:00,
2013-01-16 00:27:00,32.4,31.9,30.15,ENE,59,0.0,0.0,98,0.00,,,0.01,Wunderground v.1.15,2013-01-16 05:27:00,
2013-01-16 00:30:00,32.4,31.9,30.16,ENE,59,0.0,0.0,98,0.00,,,0.01,Wunderground v.1.15,2013-01-16 05:30:00,
2013-01-16 00:31:00,32.4,31.9,30.16,ENE,59,0.0,0.0,98,0.00,,,0.01,Wunderground v.1.15,2013-01-16 05:31:00,
2013-01-16 00:32:00,32.4,31.9,30.15,ENE,59,0.0,0.0,98,0.00,,,0.01,Wunderground v.1.15,2013-01-16 05:32:00,
2013-01-16 00:38:00,32.4,31.9,30.14,ENE,59,0.0,0.0,98,0.00,,,0.01,Wunderground v.1.15,2013-01-16 05:38:00,
2013-01-16 00:39:00,32.4,31.9,30.14,ENE,59,0.0,0.0,98,0.00,,,0.01,Wunderground v.1.15,2013-01-16 05:39:00,
2013-01-16 00:41:00,32.4,31.9,30.15,ENE,59,0.0,0.0,98,0.00,,,0.02,Wunderground v.1.15,2013-01-16 05:41:00,
2013-01-16 00:42:00,32.4,31.9,30.15,ENE,59,0.0,0.0,98,0.00,,,0.02,Wunderground v.1.15,2013-01-16 05:42:00,
2013-01-16 00:44:00,32.4,31.9,30.15,ENE,59,0.0,0.0,98,0.00,,,0.02,Wunderground v.1.15,2013-01-16 05:44:00,
2013-01-16 00:46:00,32.3,31.8,30.15,ENE,59,0.0,0.0,98,0.00,,,0.02,Wunderground v.1.15,2013-01-16 05:46:00,
2013-01-16 00:49:00,32.3,31.8,30.15,ENE,59,0.0,0.0,98,0.07,,,0.03,Wunderground v.1.15,2013-01-16 05:49:00,
2013-01-16 00:50:00,32.4,31.9,30.15,ENE,59,0.0,0.0,98,0.07,,,0.03,Wunderground v.1.15,2013-01-16 05:50:00,
2013-01-16 00:53:00,32.4,31.9,30.16,ENE,59,0.0,0.0,98,0.07,,,0.03,Wunderground v.1.15,2013-01-16 05:53:00,
2013-01-16 00:55:00,32.4,31.9,30.15,ENE,59,0.0,0.0,98,0.07,,,0.03,Wunderground v.1.15,2013-01-16 05:55:00,
2013-01-16 00:56:00,32.4,31.9,30.15,ENE,59,0.0,0.0,98,0.07,,,0.03,Wunderground v.1.15,2013-01-16 05:56:00,
2013-01-16 00:59:00,32.4,31.9,30.15,ENE,59,0.0,0.0,98,0.05,,,0.03,Wunderground v.1.15,2013-01-16 05:59:00,
2013-01-16 01:02:00,32.4,31.9,30.14,ENE,59,0.0,0.0,98,0.04,,,0.04,Wunderground v.1.15,2013-01-16 06:02:00,
2013-01-16 01:04:00,32.4,31.9,30.14,ENE,59,0.0,0.0,98,0.04,,,0.04,Wunderground v.1.15,2013-01-16 06:04:00,
2013-01-16 01:05:00,32.4,31.9,30.14,ENE,59,0.0,0.0,98,0.04,,,0.04,Wunderground v.1.15,2013-01-16 06:05:00,
2013-01-16 01:07:00,32.4,31.9,30.13,ENE,59,0.0,0.0,98,0.04,,,0.04,Wunderground v.1.15,2013-01-16 06:07:00,
2013-01-16 01:09:00,32.4,31.9,30.13,ENE,59,0.0,0.0,98,0.09,,,0.05,Wunderground v.1.15,2013-01-16 06:09:00,
2013-01-16 01:11:00,32.3,31.8,30.13,ENE,59,0.0,0.0,98,0.09,,,0.05,Wunderground v.1.15,2013-01-16 06:11:00,
2013-01-16 01:13:00,32.4,31.9,30.14,ENE,59,0.0,0.0,98,0.09,,,0.05,Wunderground v.1.15,2013-01-16 06:13:00,
2013-01-16 01:14:00,32.3,31.8,30.14,ENE,59,0.0,0.0,98,0.09,,,0.05,Wunderground v.1.15,2013-01-16 06:14:00,
2013-01-16 01:16:00,32.3,31.8,30.14,ENE,59,0.0,0.0,98,0.08,,,0.05,Wunderground v.1.15,2013-01-16 06:16:00,
2013-01-16 01:21:00,32.4,31.9,30.15,ENE,59,0.0,0.0,98,0.05,,,0.05,Wunderground v.1.15,2013-01-16 06:21:00,
2013-01-16 01:23:00,32.4,31.9,30.16,ENE,59,0.0,0.0,98,0.04,,,0.05,Wunderground v.1.15,2013-01-16 06:23:00,
2013-01-16 01:24:00,32.3,31.8,30.16,ENE,59,0.0,0.0,98,0.04,,,0.06,Wunderground v.1.15,2013-01-16 06:24:00,
2013-01-16 01:30:00,32.3,31.8,30.15,ENE,59,0.0,0.0,98,0.11,,,0.07,Wunderground v.1.15,2013-01-16 06:30:00,
2013-01-16 01:31:00,32.3,31.8,30.15,ENE,59,0.0,0.0,98,0.11,,,0.07,Wunderground v.1.15,2013-01-16 06:31:00,
2013-01-16 01:34:00,32.3,31.8,30.15,ENE,59,0.0,0.0,98,0.11,,,0.07,Wunderground v.1.15,2013-01-16 06:34:00,
2013-01-16 01:37:00,32.3,31.8,30.15,ENE,59,0.0,0.0,98,0.08,,,0.07,Wunderground v.1.15,2013-01-16 06:37:00,
2013-01-16 01:38:00,32.3,31.8,30.15,ENE,59,0.0,0.0,98,0.07,,,0.07,Wunderground v.1.15,2013-01-16 06:38:00,
2013-01-16 01:39:00,32.3,31.8,30.15,ENE,59,0.0,0.0,98,0.06,,,0.07,Wunderground v.1.15,2013-01-16 06:39:00,
2013-01-16 01:44:00,32.3,31.8,30.16,ENE,59,0.0,0.0,98,0.04,,,0.07,Wunderground v.1.15,2013-01-16 06:44:00,
2013-01-16 01:45:00,32.3,31.8,30.16,ENE,59,0.0,0.0,98,0.04,,,0.07,Wunderground v.1.15,2013-01-16 06:45:00,
2013-01-16 01:46:00,32.3,31.8,30.16,ENE,59,0.0,0.0,98,0.04,,,0.07,Wunderground v.1.15,2013-01-16 06:46:00,
2013-01-16 01:49:00,32.3,31.8,30.17,ENE,59,0.0,0.0,98,0.00,,,0.07,Wunderground v.1.15,2013-01-16 06:49:00,
2013-01-16 01:51:00,32.4,31.9,30.17,ENE,59,0.0,0.0,98,0.00,,,0.07,Wunderground v.1.15,2013-01-16 06:51:00,
2013-01-16 01:53:00,32.4,31.9,30.17,ENE,59,0.0,0.0,98,0.00,,,0.07,Wunderground v.1.15,2013-01-16 06:53:00,
2013-01-16 01:54:00,32.4,31.9,30.17,ENE,59,0.0,0.0,98,0.00,,,0.07,Wunderground v.1.15,2013-01-16 06:54:00,
2013-01-16 01:59:00,32.4,31.9,30.18,ENE,59,0.0,0.0,98,0.00,,,0.08,Wunderground v.1.15,2013-01-16 06:59:00,
2013-01-16 02:01:00,32.4,31.9,30.18,ENE,59,0.0,0.0,98,0.00,,,0.08,Wunderground v.1.15,2013-01-16 07:01:00,
2013-01-16 02:02:00,32.4,31.9,30.17,ENE,59,0.0,0.0,98,0.00,,,0.08,Wunderground v.1.15,2013-01-16 07:02:00,
2013-01-16 02:04:00,32.4,31.9,30.17,ENE,59,0.0,0.0,98,0.00,,,0.08,Wunderground v.1.15,2013-01-16 07:04:00,
2013-01-16 02:06:00,32.3,31.8,30.18,ENE,59,0.0,0.0,98,0.07,,,0.09,Wunderground v.1.15,2013-01-16 07:06:00,
2013-01-16 02:09:00,32.3,31.8,30.18,ENE,59,0.0,0.0,98,0.07,,,0.09,Wunderground v.1.15,2013-01-16 07:09:00,
2013-01-16 02:11:00,32.3,31.8,30.17,ENE,59,0.0,0.0,98,0.07,,,0.09,Wunderground v.1.15,2013-01-16 07:11:00,
2013-01-16 02:13:00,32.3,31.8,30.17,ENE,59,0.0,0.0,98,0.07,,,0.09,Wunderground v.1.15,2013-01-16 07:13:00,
2013-01-16 02:14:00,32.3,31.8,30.17,ENE,59,0.0,0.0,98,0.06,,,0.09,Wunderground v.1.15,2013-01-16 07:14:00,
2013-01-16 02:15:00,32.3,31.8,30.16,ENE,59,0.0,0.0,98,0.06,,,0.09,Wunderground v.1.15,2013-01-16 07:15:00,
2013-01-16 02:18:00,32.3,31.8,30.16,ENE,59,0.0,0.0,98,0.04,,,0.09,Wunderground v.1.15,2013-01-16 07:18:00,
2013-01-16 02:20:00,32.3,31.8,30.16,ENE,59,0.0,0.0,98,0.04,,,0.09,Wunderground v.1.15,2013-01-16 07:20:00,
2013-01-16 02:21:00,32.3,31.8,30.15,ENE,59,0.0,0.0,98,0.04,,,0.09,Wunderground v.1.15,2013-01-16 07:21:00,
2013-01-16 02:24:00,32.3,31.8,30.14,ENE,59,0.0,0.0,98,0.00,,,0.09,Wunderground v.1.15,2013-01-16 07:24:00,
2013-01-16 02:25:00,32.3,31.8,30.14,ENE,59,0.0,0.0,98,0.00,,,0.09,Wunderground v.1.15,2013-01-16 07:25:00,
2013-01-16 02:26:00,32.3,31.8,30.13,ENE,59,0.0,0.0,98,0.00,,,0.09,Wunderground v.1.15,2013-01-16 07:26:00,
2013-01-16 02:27:00,32.3,31.8,30.13,ENE,59,0.0,0.0,98,0.00,,,0.09,Wunderground v.1.15,2013-01-16 07:27:00,
2013-01-16 02:30:00,32.3,31.8,30.13,ENE,59,0.0,0.0,98,0.00,,,0.09,Wunderground v.1.15,2013-01-16 07:30:00,
2013-01-16 02:31:00,32.3,31.8,30.13,ENE,59,0.0,0.0,98,0.00,,,0.09,Wunderground v.1.15,2013-01-16 07:31:00,
2013-01-16 02:33:00,32.4,31.9,30.13,ENE,59,0.0,0.0,98,0.00,,,0.09,Wunderground v.1.15,2013-01-16 07:33:00,
2013-01-16 02:34:00,32.4,31.9,30.13,ENE,59,0.0,0.0,98,0.00,,,0.09,Wunderground v.1.15,2013-01-16 07:34:00,
2013-01-16 02:35:00,32.4,31.9,30.12,ENE,59,0.0,0.0,98,0.00,,,0.09,Wunderground v.1.15,2013-01-16 07:35:00,
2013-01-16 02:37:00,32.4,31.9,30.12,ENE,59,0.0,0.0,98,0.00,,,0.09,Wunderground v.1.15,2013-01-16 07:37:00,
2013-01-16 02:40:00,32.3,31.8,30.12,ENE,59,0.0,0.0,98,0.00,,,0.09,Wunderground v.1.15,2013-01-16 07:40:00,
2013-01-16 02:42:00,32.3,31.8,30.12,ENE,59,0.0,0.0,98,0.00,,,0.09,Wunderground v.1.15,2013-01-16 07:42:00,
2013-01-16 02:44:00,32.3,31.8,30.12,ENE,59,0.0,0.0,98,0.00,,,0.09,Wunderground v.1.15,2013-01-16 07:44:00,
2013-01-16 02:46:00,32.3,31.8,30.12,ENE,59,0.0,0.0,98,0.00,,,0.09,Wunderground v.1.15,2013-01-16 07:46:00,
2013-01-16 02:51:00,32.3,31.8,30.14,ENE,59,0.0,0.0,98,0.00,,,0.09,Wunderground v.1.15,2013-01-16 07:51:00,
2013-01-16 02:52:00,32.3,31.8,30.14,ENE,59,0.0,0.0,98,0.00,,,0.09,Wunderground v.1.15,2013-01-16 07:52:00,
2013-01-16 02:53:00,32.3,31.8,30.14,ENE,59,0.0,0.0,98,0.00,,,0.09,Wunderground v.1.15,2013-01-16 07:53:00,
2013-01-16 02:57:00,32.3,31.8,30.14,ENE,59,0.0,0.0,98,0.00,,,0.09,Wunderground v.1.15,2013-01-16 07:57:00,
2013-01-16 02:59:00,32.3,31.8,30.14,ENE,59,0.0,0.0,98,0.00,,,0.09,Wunderground v.1.15,2013-01-16 07:59:00,
2013-01-16 03:01:00,32.3,31.8,30.14,ENE,59,0.0,0.0,98,0.00,,,0.10,Wunderground v.1.15,2013-01-16 08:01:00,
2013-01-16 03:03:00,32.3,31.8,30.14,ENE,59,0.0,0.0,98,0.00,,,0.10,Wunderground v.1.15,2013-01-16 08:03:00,
2013-01-16 03:06:00,32.3,31.8,30.14,ENE,59,0.0,0.0,98,0.13,,,0.11,Wunderground v.1.15,2013-01-16 08:06:00,
2013-01-16 03:08:00,32.3,31.8,30.14,ENE,59,0.0,0.0,98,0.13,,,0.11,Wunderground v.1.15,2013-01-16 08:08:00,
2013-01-16 03:10:00,32.3,31.8,30.14,ENE,59,0.0,0.0,98,0.12,,,0.11,Wunderground v.1.15,2013-01-16 08:10:00,
2013-01-16 03:11:00,32.3,31.8,30.14,ENE,59,0.0,0.0,98,0.10,,,0.11,Wunderground v.1.15,2013-01-16 08:11:00,
2013-01-16 03:14:00,32.4,31.9,30.14,ENE,59,0.0,0.0,98,0.07,,,0.11,Wunderground v.1.15,2013-01-16 08:14:00,
2013-01-16 03:15:00,32.4,31.9,30.14,ENE,59,0.0,0.0,98,0.06,,,0.11,Wunderground v.1.15,2013-01-16 08:15:00,
2013-01-16 03:16:00,32.4,31.9,30.14,ENE,59,0.0,0.0,98,0.05,,,0.11,Wunderground v.1.15,2013-01-16 08:16:00,
2013-01-16 03:19:00,32.4,31.9,30.13,ENE,59,0.0,0.0,98,0.04,,,0.11,Wunderground v.1.15,2013-01-16 08:19:00,
2013-01-16 03:21:00,32.4,31.9,30.12,ENE,59,0.0,0.0,98,0.04,,,0.11,Wunderground v.1.15,2013-01-16 08:21:00,
2013-01-16 03:22:00,32.4,31.9,30.12,ENE,59,0.0,0.0,98,0.04,,,0.12,Wunderground v.1.15,2013-01-16 08:22:00,
2013-01-16 03:23:00,32.4,31.9,30.13,ENE,59,0.0,0.0,98,0.04,,,0.12,Wunderground v.1.15,2013-01-16 08:23:00,
2013-01-16 03:27:00,32.4,31.9,30.12,ENE,59,0.0,0.0,98,0.04,,,0.12,Wunderground v.1.15,2013-01-16 08:27:00,
2013-01-16 03:28:00,32.4,31.9,30.13,ENE,59,0.0,0.0,98,0.04,,,0.12,Wunderground v.1.15,2013-01-16 08:28:00,
2013-01-16 03:32:00,32.4,31.9,30.13,ENE,59,0.0,0.0,98,0.04,,,0.12,Wunderground v.1.15,2013-01-16 08:32:00,
2013-01-16 03:33:00,32.4,31.9,30.13,ENE,59,0.0,0.0,98,0.04,,,0.12,Wunderground v.1.15,2013-01-16 08:33:00,
2013-01-16 03:36:00,32.4,31.9,30.13,ENE,59,0.0,0.0,98,0.05,,,0.13,Wunderground v.1.15,2013-01-16 08:36:00,
2013-01-16 03:38:00,32.4,31.9,30.12,ENE,59,0.0,0.0,98,0.05,,,0.13,Wunderground v.1.15,2013-01-16 08:38:00,
2013-01-16 03:40:00,32.4,31.9,30.12,ENE,59,0.0,0.0,98,0.05,,,0.13,Wunderground v.1.15,2013-01-16 08:40:00,
2013-01-16 03:41:00,32.4,31.9,30.12,ENE,59,0.0,0.0,98,0.05,,,0.13,Wunderground v.1.15,2013-01-16 08:41:00,
2013-01-16 03:42:00,32.4,31.9,30.11,ENE,59,0.0,0.0,98,0.05,,,0.13,Wunderground v.1.15,2013-01-16 08:42:00,
2013-01-16 03:43:00,32.4,31.9,30.11,ENE,59,0.0,0.0,98,0.05,,,0.13,Wunderground v.1.15,2013-01-16 08:43:00,
2013-01-16 03:47:00,32.4,31.9,30.11,ENE,59,0.0,0.0,98,0.05,,,0.13,Wunderground v.1.15,2013-01-16 08:47:00,
2013-01-16 03:48:00,32.4,31.9,30.11,ENE,59,0.0,0.0,98,0.04,,,0.13,Wunderground v.1.15,2013-01-16 08:48:00,
2013-01-16 03:49:00,32.4,31.9,30.11,ENE,59,0.0,0.0,98,0.04,,,0.13,Wunderground v.1.15,2013-01-16 08:49:00,
2013-01-16 03:50:00,32.4,31.9,30.12,ENE,59,0.0,0.0,98,0.04,,,0.13,Wunderground v.1.15,2013-01-16 08:50:00,
2013-01-16 03:53:00,32.4,31.9,30.12,ENE,59,0.0,0.0,98,0.00,,,0.13,Wunderground v.1.15,2013-01-16 08:53:00,
2013-01-16 03:55:00,32.5,32.0,30.11,ENE,59,0.0,0.0,98,0.00,,,0.13,Wunderground v.1.15,2013-01-16 08:55:00,
2013-01-16 03:56:00,32.5,32.0,30.11,ENE,59,0.0,0.0,98,0.00,,,0.13,Wunderground v.1.15,2013-01-16 08:56:00,
2013-01-16 03:59:00,32.6,32.1,30.12,ENE,59,0.0,0.0,98,0.00,,,0.13,Wunderground v.1.15,2013-01-16 08:59:00,
2013-01-16 04:01:00,32.6,32.1,30.10,ENE,59,0.0,0.0,98,0.00,,,0.13,Wunderground v.1.15,2013-01-16 09:01:00,
2013-01-16 04:06:00,32.6,32.1,30.11,ENE,59,0.0,0.0,98,0.00,,,0.14,Wunderground v.1.15,2013-01-16 09:06:00,
2013-01-16 04:07:00,32.6,32.1,30.11,ENE,59,0.0,0.0,98,0.00,,,0.14,Wunderground v.1.15,2013-01-16 09:07:00,
2013-01-16 04:08:00,32.5,32.0,30.11,ENE,59,0.0,0.0,98,0.00,,,0.14,Wunderground v.1.15,2013-01-16 09:08:00,
2013-01-16 04:09:00,32.5,32.0,30.11,ENE,59,0.0,0.0,98,0.00,,,0.14,Wunderground v.1.15,2013-01-16 09:09:00,
2013-01-16 04:12:00,32.5,32.0,30.11,ENE,59,0.0,0.0,98,0.00,,,0.14,Wunderground v.1.15,2013-01-16 09:12:00,
2013-01-16 04:14:00,32.5,32.0,30.11,ENE,59,0.0,0.0,98,0.08,,,0.15,Wunderground v.1.15,2013-01-16 09:14:00,
2013-01-16 04:15:00,32.6,32.1,30.10,ENE,59,0.0,0.0,98,0.08,,,0.15,Wunderground v.1.15,2013-01-16 09:15:00,
2013-01-16 04:19:00,32.5,32.0,30.10,ENE,59,0.0,0.0,98,0.08,,,0.15,Wunderground v.1.15,2013-01-16 09:19:00,
2013-01-16 04:20:00,32.5,32.0,30.10,ENE,59,0.0,0.0,98,0.08,,,0.15,Wunderground v.1.15,2013-01-16 09:20:00,
2013-01-16 04:21:00,32.5,32.0,30.10,ENE,59,0.0,0.0,98,0.08,,,0.15,Wunderground v.1.15,2013-01-16 09:21:00,
2013-01-16 04:25:00,32.5,32.0,30.11,ENE,59,0.0,0.0,98,0.05,,,0.15,Wunderground v.1.15,2013-01-16 09:25:00,
2013-01-16 04:26:00,32.5,32.0,30.11,ENE,59,0.0,0.0,98,0.05,,,0.15,Wunderground v.1.15,2013-01-16 09:26:00,
2013-01-16 04:28:00,32.5,32.0,30.11,ENE,59,0.0,0.0,98,0.04,,,0.15,Wunderground v.1.15,2013-01-16 09:28:00,
2013-01-16 04:33:00,32.5,32.0,30.11,ENE,59,0.0,0.0,98,0.00,,,0.15,Wunderground v.1.15,2013-01-16 09:33:00,
2013-01-16 04:34:00,32.5,32.0,30.11,ENE,59,0.0,0.0,98,0.00,,,0.15,Wunderground v.1.15,2013-01-16 09:34:00,
2013-01-16 04:35:00,32.5,32.0,30.11,ENE,59,0.0,0.0,98,0.00,,,0.15,Wunderground v.1.15,2013-01-16 09:35:00,
2013-01-16 04:37:00,32.5,32.0,30.10,ENE,59,0.0,0.0,98,0.00,,,0.15,Wunderground v.1.15,2013-01-16 09:37:00,
2013-01-16 04:40:00,32.5,32.0,30.10,ENE,59,0.0,0.0,98,0.00,,,0.15,Wunderground v.1.15,2013-01-16 09:40:00,
2013-01-16 04:41:00,32.5,32.0,30.10,ENE,59,0.0,0.0,98,0.00,,,0.15,Wunderground v.1.15,2013-01-16 09:41:00,
2013-01-16 04:42:00,32.5,32.0,30.09,ENE,59,0.0,0.0,98,0.00,,,0.15,Wunderground v.1.15,2013-01-16 09:42:00,
2013-01-16 04:44:00,32.5,32.0,30.08,ENE,59,0.0,0.0,98,0.00,,,0.16,Wunderground v.1.15,2013-01-16 09:44:00,
2013-01-16 04:48:00,32.6,32.1,30.07,ENE,59,0.0,0.0,98,0.00,,,0.16,Wunderground v.1.15,2013-01-16 09:48:00,
2013-01-16 04:50:00,32.6,32.1,30.06,ENE,59,0.0,0.0,98,0.00,,,0.16,Wunderground v.1.15,2013-01-16 09:50:00,
2013-01-16 04:53:00,32.6,32.1,30.06,ENE,59,0.0,0.0,98,0.00,,,0.16,Wunderground v.1.15,2013-01-16 09:53:00,
2013-01-16 04:58:00,32.6,32.1,30.08,ENE,59,0.0,0.0,98,0.00,,,0.16,Wunderground v.1.15,2013-01-16 09:58:00,
2013-01-16 04:59:00,32.7,32.2,30.09,ENE,59,0.0,0.0,98,0.00,,,0.16,Wunderground v.1.15,2013-01-16 09:59:00,
2013-01-16 05:01:00,32.7,32.2,30.10,ENE,59,0.0,0.0,98,0.00,,,0.16,Wunderground v.1.15,2013-01-16 10:01:00,
2013-01-16 05:03:00,32.7,32.2,30.10,ENE,59,0.0,0.0,98,0.00,,,0.16,Wunderground v.1.15,2013-01-16 10:03:00,
2013-01-16 05:04:00,32.7,32.2,30.10,ENE,59,0.0,0.0,98,0.00,,,0.16,Wunderground v.1.15,2013-01-16 10:04:00,
2013-01-16 05:07:00,32.6,32.1,30.10,ENE,59,0.0,0.0,98,0.00,,,0.16,Wunderground v.1.15,2013-01-16 10:07:00,
2013-01-16 05:08:00,32.6,32.1,30.10,ENE,59,0.0,0.0,98,0.00,,,0.16,Wunderground v.1.15,2013-01-16 10:08:00,
2013-01-16 05:10:00,32.6,32.1,30.10,ENE,59,0.0,0.0,98,0.00,,,0.16,Wunderground v.1.15,2013-01-16 10:10:00,
2013-01-16 05:13:00,32.5,32.0,30.08,ENE,59,0.0,0.0,98,0.00,,,0.16,Wunderground v.1.15,2013-01-16 10:13:00,
2013-01-16 05:15:00,32.4,31.9,30.08,ENE,59,0.0,0.0,98,0.00,,,0.16,Wunderground v.1.15,2013-01-16 10:15:00,
2013-01-16 05:16:00,32.5,32.0,30.09,ENE,59,0.0,0.0,98,0.00,,,0.16,Wunderground v.1.15,2013-01-16 10:16:00,
2013-01-16 05:17:00,32.5,32.0,30.10,ENE,59,0.0,0.0,98,0.00,,,0.16,Wunderground v.1.15,2013-01-16 10:17:00,
2013-01-16 05:18:00,32.5,32.0,30.10,ENE,59,0.0,0.0,98,0.00,,,0.16,Wunderground v.1.15,2013-01-16 10:18:00,
2013-01-16 05:22:00,32.5,32.0,30.11,ENE,59,0.0,0.0,98,0.00,,,0.17,Wunderground v.1.15,2013-01-16 10:22:00,
2013-01-16 05:23:00,32.5,32.0,30.11,ENE,59,0.0,0.0,98,0.00,,,0.17,Wunderground v.1.15,2013-01-16 10:23:00,
2013-01-16 05:26:00,32.5,32.0,30.11,ENE,59,0.0,0.0,98,0.00,,,0.17,Wunderground v.1.15,2013-01-16 10:26:00,
2013-01-16 05:27:00,32.5,32.0,30.12,ENE,59,0.0,0.0,98,0.00,,,0.17,Wunderground v.1.15,2013-01-16 10:27:00,
2013-01-16 05:28:00,32.5,32.0,30.13,ENE,59,0.0,0.0,98,0.00,,,0.17,Wunderground v.1.15,2013-01-16 10:28:00,
2013-01-16 05:30:00,32.5,32.0,30.13,ENE,59,0.0,0.0,98,0.00,,,0.17,Wunderground v.1.15,2013-01-16 10:30:00,
2013-01-16 05:31:00,32.5,32.0,30.13,ENE,59,0.0,0.0,98,0.00,,,0.17,Wunderground v.1.15,2013-01-16 10:31:00,
2013-01-16 05:35:00,32.5,32.0,30.11,ENE,59,0.0,0.0,98,0.00,,,0.17,Wunderground v.1.15,2013-01-16 10:35:00,
2013-01-16 05:36:00,32.5,32.0,30.11,ENE,59,0.0,0.0,98,0.00,,,0.17,Wunderground v.1.15,2013-01-16 10:36:00,
2013-01-16 05:37:00,32.5,32.0,30.11,ENE,59,0.0,0.0,98,0.00,,,0.17,Wunderground v.1.15,2013-01-16 10:37:00,
2013-01-16 05:38:00,32.5,32.0,30.11,ENE,59,0.0,0.0,98,0.00,,,0.17,Wunderground v.1.15,2013-01-16 10:38:00,
2013-01-16 05:42:00,32.4,31.9,30.11,ENE,59,0.0,0.0,98,0.00,,,0.17,Wunderground v.1.15,2013-01-16 10:42:00,
2013-01-16 05:43:00,32.4,31.9,30.10,ENE,59,0.0,0.0,98,0.00,,,0.17,Wunderground v.1.15,2013-01-16 10:43:00,
2013-01-16 05:44:00,32.4,31.9,30.09,ENE,59,0.0,0.0,98,0.00,,,0.17,Wunderground v.1.15,2013-01-16 10:44:00,
2013-01-16 05:47:00,32.3,31.8,30.08,ENE,59,0.0,0.0,98,0.00,,,0.17,Wunderground v.1.15,2013-01-16 10:47:00,
2013-01-16 05:50:00,32.3,31.8,30.06,ENE,59,0.0,0.0,98,0.00,,,0.17,Wunderground v.1.15,2013-01-16 10:50:00,
2013-01-16 05:51:00,32.3,31.8,30.06,ENE,59,0.0,0.0,98,0.00,,,0.17,Wunderground v.1.15,2013-01-16 10:51:00,
2013-01-16 05:54:00,32.4,31.9,30.08,ENE,59,0.0,0.0,98,0.00,,,0.17,Wunderground v.1.15,2013-01-16 10:54:00,
2013-01-16 05:55:00,32.4,31.9,30.07,ENE,59,0.0,0.0,98,0.00,,,0.17,Wunderground v.1.15,2013-01-16 10:55:00,
2013-01-16 05:56:00,32.4,31.9,30.07,ENE,59,0.0,0.0,98,0.00,,,0.17,Wunderground v.1.15,2013-01-16 10:56:00,
2013-01-16 05:59:00,32.3,31.8,30.09,ENE,59,0.0,0.0,98,0.00,,,0.17,Wunderground v.1.15,2013-01-16 10:59:00,
2013-01-16 06:00:00,32.3,31.8,30.10,ENE,59,0.0,0.0,98,0.00,,,0.17,Wunderground v.1.15,2013-01-16 11:00:00,
2013-01-16 06:02:00,32.3,31.8,30.10,ENE,59,0.0,0.0,98,0.00,,,0.17,Wunderground v.1.15,2013-01-16 11:02:00,
2013-01-16 06:03:00,32.3,31.8,30.11,ENE,59,0.0,0.0,98,0.00,,,0.17,Wunderground v.1.15,2013-01-16 11:03:00,
2013-01-16 06:04:00,32.3,31.8,30.12,ENE,59,0.0,0.0,98,0.00,,,0.17,Wunderground v.1.15,2013-01-16 11:04:00,
2013-01-16 06:06:00,32.4,31.9,30.14,ENE,59,0.0,0.0,98,0.00,,,0.17,Wunderground v.1.15,2013-01-16 11:06:00,
2013-01-16 06:08:00,32.3,31.8,30.13,ENE,59,0.0,0.0,98,0.00,,,0.17,Wunderground v.1.15,2013-01-16 11:08:00,
2013-01-16 06:11:00,32.3,31.8,30.13,ENE,59,0.0,0.0,98,0.00,,,0.17,Wunderground v.1.15,2013-01-16 11:11:00,
2013-01-16 06:12:00,32.3,31.8,30.13,ENE,59,0.0,0.0,98,0.00,,,0.17,Wunderground v.1.15,2013-01-16 11:12:00,
2013-01-16 06:13:00,32.3,31.8,30.09,ENE,59,0.0,0.0,98,0.00,,,0.17,Wunderground v.1.15,2013-01-16 11:13:00,
2013-01-16 06:14:00,32.3,31.8,30.09,ENE,59,0.0,0.0,98,0.00,,,0.17,Wunderground v.1.15,2013-01-16 11:14:00,
2013-01-16 06:18:00,32.3,31.8,30.08,ENE,59,0.0,0.0,98,0.00,,,0.17,Wunderground v.1.15,2013-01-16 11:18:00,
2013-01-16 06:21:00,32.3,31.8,30.09,ENE,59,0.0,0.0,98,0.00,,,0.17,Wunderground v.1.15,2013-01-16 11:21:00,
2013-01-16 06:23:00,32.4,31.9,30.13,ENE,59,0.0,0.0,98,0.00,,,0.17,Wunderground v.1.15,2013-01-16 11:23:00,
2013-01-16 06:25:00,32.4,31.9,30.13,ENE,59,0.0,0.0,98,0.00,,,0.17,Wunderground v.1.15,2013-01-16 11:25:00,
2013-01-16 06:27:00,32.4,31.9,30.13,ENE,59,0.0,0.0,98,0.00,,,0.17,Wunderground v.1.15,2013-01-16 11:27:00,
2013-01-16 06:29:00,32.4,31.9,30.14,ENE,59,0.0,0.0,98,0.00,,,0.17,Wunderground v.1.15,2013-01-16 11:29:00,
2013-01-16 06:32:00,32.3,31.8,30.13,ENE,59,0.0,0.0,98,0.00,,,0.17,Wunderground v.1.15,2013-01-16 11:32:00,
2013-01-16 06:33:00,32.3,31.8,30.13,ENE,59,0.0,0.0,98,0.00,,,0.17,Wunderground v.1.15,2013-01-16 11:33:00,
2013-01-16 06:34:00,32.3,31.8,30.12,ENE,59,0.0,0.0,98,0.00,,,0.17,Wunderground v.1.15,2013-01-16 11:34:00,
2013-01-16 06:38:00,32.3,31.8,30.12,ENE,59,0.0,0.0,98,0.00,,,0.17,Wunderground v.1.15,2013-01-16 11:38:00,
2013-01-16 06:40:00,32.3,31.8,30.13,ENE,59,0.0,0.0,98,0.00,,,0.17,Wunderground v.1.15,2013-01-16 11:40:00,
2013-01-16 06:41:00,32.3,31.8,30.13,ENE,59,0.0,0.0,98,0.00,,,0.17,Wunderground v.1.15,2013-01-16 11:41:00,
2013-01-16 06:42:00,32.3,31.8,30.13,ENE,59,0.0,0.0,98,0.00,,,0.17,Wunderground v.1.15,2013-01-16 11:42:00,
2013-01-16 06:47:00,32.3,31.8,30.12,ENE,59,0.0,0.0,98,0.00,,,0.17,Wunderground v.1.15,2013-01-16 11:47:00,
2013-01-16 06:48:00,32.3,31.8,30.14,ENE,59,0.0,0.0,98,0.00,,,0.17,Wunderground v.1.15,2013-01-16 11:48:00,
2013-01-16 06:49:00,32.3,31.8,30.14,ENE,59,0.0,0.0,98,0.00,,,0.17,Wunderground v.1.15,2013-01-16 11:49:00,
2013-01-16 06:52:00,32.4,31.9,30.14,ENE,59,0.0,0.0,98,0.00,,,0.17,Wunderground v.1.15,2013-01-16 11:52:00,
2013-01-16 06:53:00,32.4,31.9,30.14,ENE,59,0.0,0.0,98,0.00,,,0.17,Wunderground v.1.15,2013-01-16 11:53:00,
2013-01-16 06:55:00,32.4,31.9,30.15,ENE,59,0.0,0.0,98,0.00,,,0.17,Wunderground v.1.15,2013-01-16 11:55:00,
2013-01-16 06:58:00,32.4,31.9,30.14,ENE,59,0.0,0.0,98,0.00,,,0.17,Wunderground v.1.15,2013-01-16 11:58:00,
2013-01-16 06:59:00,32.4,31.9,30.14,ENE,59,0.0,0.0,98,0.00,,,0.17,Wunderground v.1.15,2013-01-16 11:59:00,
2013-01-16 07:01:00,32.4,31.9,30.14,ENE,59,0.0,0.0,98,0.00,,,0.17,Wunderground v.1.15,2013-01-16 12:01:00,
2013-01-16 07:04:00,32.4,31.9,30.14,ENE,59,0.0,0.0,98,0.00,,,0.17,Wunderground v.1.15,2013-01-16 12:04:00,
2013-01-16 07:06:00,32.4,31.9,30.12,ENE,59,0.0,0.0,98,0.00,,,0.17,Wunderground v.1.15,2013-01-16 12:06:00,
2013-01-16 07:07:00,32.4,31.9,30.12,ENE,59,0.0,0.0,98,0.00,,,0.17,Wunderground v.1.15,2013-01-16 12:07:00,
2013-01-16 07:08:00,32.4,31.9,30.13,ENE,59,0.0,0.0,98,0.00,,,0.17,Wunderground v.1.15,2013-01-16 12:08:00,
2013-01-16 07:13:00,32.4,31.9,30.13,ENE,59,0.0,0.0,98,0.00,,,0.17,Wunderground v.1.15,2013-01-16 12:13:00,
2013-01-16 07:14:00,32.4,31.9,30.13,ENE,59,0.0,0.0,98,0.00,,,0.17,Wunderground v.1.15,2013-01-16 12:14:00,
2013-01-16 07:15:00,32.4,31.9,30.13,ENE,59,0.0,0.0,98,0.00,,,0.17,Wunderground v.1.15,2013-01-16 12:15:00,
2013-01-16 07:19:00,32.4,31.9,30.11,ENE,59,0.0,0.0,98,0.00,,,0.17,Wunderground v.1.15,2013-01-16 12:19:00,
2013-01-16 07:20:00,32.4,31.9,30.11,ENE,59,0.0,0.0,98,0.00,,,0.17,Wunderground v.1.15,2013-01-16 12:20:00,
2013-01-16 07:21:00,32.4,31.9,30.11,ENE,59,0.0,0.0,98,0.00,,,0.17,Wunderground v.1.15,2013-01-16 12:21:00,
2013-01-16 07:26:00,32.4,31.9,30.08,ENE,59,0.0,0.0,98,0.00,,,0.17,Wunderground v.1.15,2013-01-16 12:26:00,
2013-01-16 07:27:00,32.4,31.9,30.07,ENE,59,0.0,0.0,98,0.00,,,0.17,Wunderground v.1.15,2013-01-16 12:27:00,
2013-01-16 07:28:00,32.4,31.9,30.07,ENE,59,0.0,0.0,98,0.00,,,0.17,Wunderground v.1.15,2013-01-16 12:28:00,
2013-01-16 07:29:00,32.4,31.9,30.07,ENE,59,0.0,0.0,98,0.00,,,0.17,Wunderground v.1.15,2013-01-16 12:29:00,
2013-01-16 07:32:00,32.4,31.9,30.07,ENE,59,0.0,0.0,98,0.00,,,0.17,Wunderground v.1.15,2013-01-16 12:32:00,
2013-01-16 07:34:00,32.5,32.0,30.10,ENE,59,0.0,0.0,98,0.00,,,0.17,Wunderground v.1.15,2013-01-16 12:34:00,
2013-01-16 07:35:00,32.5,32.0,30.11,ENE,59,0.0,0.0,98,0.00,,,0.17,Wunderground v.1.15,2013-01-16 12:35:00,
2013-01-16 07:36:00,32.5,32.0,30.11,ENE,59,0.0,0.0,98,0.00,,,0.17,Wunderground v.1.15,2013-01-16 12:36:00,
2013-01-16 07:37:00,32.5,32.0,30.11,ENE,59,0.0,0.0,98,0.00,,,0.17,Wunderground v.1.15,2013-01-16 12:37:00,
2013-01-16 07:41:00,32.5,32.0,30.10,ENE,59,0.0,0.0,98,0.00,,,0.17,Wunderground v.1.15,2013-01-16 12:41:00,
2013-01-16 07:42:00,32.5,32.0,30.10,ENE,59,0.0,0.0,98,0.00,,,0.17,Wunderground v.1.15,2013-01-16 12:42:00,
2013-01-16 07:43:00,32.5,32.0,30.12,ENE,59,0.0,0.0,98,0.00,,,0.17,Wunderground v.1.15,2013-01-16 12:43:00,
2013-01-16 07:46:00,32.5,32.0,30.13,ENE,59,0.0,0.0,98,0.00,,,0.17,Wunderground v.1.15,2013-01-16 12:46:00,
2013-01-16 07:47:00,32.4,31.9,30.14,ENE,59,0.0,0.0,98,0.00,,,0.17,Wunderground v.1.15,2013-01-16 12:47:00,
2013-01-16 07:49:00,32.4,31.9,30.13,ENE,59,0.0,0.0,98,0.00,,,0.17,Wunderground v.1.15,2013-01-16 12:49:00,
2013-01-16 07:51:00,32.4,31.9,30.12,ENE,59,0.0,0.0,98,0.00,,,0.17,Wunderground v.1.15,2013-01-16 12:51:00,
2013-01-16 07:53:00,32.4,31.9,30.13,ENE,59,0.0,0.0,98,0.00,,,0.17,Wunderground v.1.15,2013-01-16 12:53:00,
2013-01-16 07:56:00,32.4,31.9,30.14,ENE,59,0.0,0.0,98,0.00,,,0.17,Wunderground v.1.15,2013-01-16 12:56:00,
2013-01-16 07:57:00,32.4,31.9,30.14,ENE,59,0.0,0.0,98,0.00,,,0.17,Wunderground v.1.15,2013-01-16 12:57:00,
2013-01-16 07:59:00,32.4,31.9,30.12,ENE,59,0.0,0.0,98,0.00,,,0.17,Wunderground v.1.15,2013-01-16 12:59:00,
2013-01-16 08:00:00,32.4,31.9,30.12,ENE,59,0.0,0.0,98,0.00,,,0.17,Wunderground v.1.15,2013-01-16 13:00:00,
2013-01-16 08:05:00,32.3,31.8,30.09,ENE,59,0.0,0.0,98,0.00,,,0.17,Wunderground v.1.15,2013-01-16 13:05:00,
2013-01-16 08:06:00,32.3,31.8,30.09,ENE,59,0.0,0.0,98,0.00,,,0.17,Wunderground v.1.15,2013-01-16 13:06:00,
2013-01-16 08:07:00,32.3,31.8,30.09,ENE,59,0.0,0.0,98,0.00,,,0.17,Wunderground v.1.15,2013-01-16 13:07:00,
2013-01-16 08:10:00,32.3,31.8,30.11,ENE,59,0.0,0.0,98,0.00,,,0.17,Wunderground v.1.15,2013-01-16 13:10:00,
2013-01-16 08:11:00,32.4,31.9,30.11,ENE,59,0.0,0.0,98,0.00,,,0.17,Wunderground v.1.15,2013-01-16 13:11:00,
2013-01-16 08:12:00,32.4,31.9,30.11,ENE,59,0.0,0.0,98,0.00,,,0.17,Wunderground v.1.15,2013-01-16 13:12:00,
2013-01-16 08:13:00,32.4,31.9,30.11,ENE,59,0.0,0.0,98,0.00,,,0.17,Wunderground v.1.15,2013-01-16 13:13:00,
2013-01-16 08:17:00,32.4,31.9,30.11,ENE,59,0.0,0.0,98,0.00,,,0.17,Wunderground v.1.15,2013-01-16 13:17:00,
2013-01-16 08:18:00,32.4,31.9,30.12,ENE,59,0.0,0.0,98,0.00,,,0.17,Wunderground v.1.15,2013-01-16 13:18:00,
2013-01-16 08:19:00,32.4,31.9,30.12,ENE,59,0.0,0.0,98,0.00,,,0.17,Wunderground v.1.15,2013-01-16 13:19:00,
2013-01-16 08:21:00,32.5,32.0,30.13,ENE,59,0.0,0.0,98,0.00,,,0.17,Wunderground v.1.15,2013-01-16 13:21:00,
2013-01-16 08:22:00,32.5,32.0,30.13,ENE,59,0.0,0.0,98,0.00,,,0.17,Wunderground v.1.15,2013-01-16 13:22:00,
2013-01-16 08:25:00,32.5,32.0,30.13,ENE,59,0.0,0.0,98,0.00,,,0.17,Wunderground v.1.15,2013-01-16 13:25:00,
2013-01-16 08:26:00,32.5,32.0,30.13,ENE,59,0.0,0.0,98,0.00,,,0.17,Wunderground v.1.15,2013-01-16 13:26:00,
2013-01-16 08:27:00,32.4,31.9,30.13,ENE,59,0.0,0.0,98,0.00,,,0.17,Wunderground v.1.15,2013-01-16 13:27:00,
2013-01-16 08:29:00,32.4,31.9,30.13,ENE,59,0.0,0.0,98,0.00,,,0.17,Wunderground v.1.15,2013-01-16 13:29:00,
2013-01-16 08:31:00,32.4,31.9,30.13,ENE,59,0.0,0.0,98,0.00,,,0.17,Wunderground v.1.15,2013-01-16 13:31:00,
2013-01-16 08:32:00,32.4,31.9,30.13,ENE,59,0.0,0.0,98,0.00,,,0.17,Wunderground v.1.15,2013-01-16 13:32:00,
2013-01-16 08:34:00,32.4,31.9,30.13,ENE,59,0.0,0.0,98,0.00,,,0.17,Wunderground v.1.15,2013-01-16 13:34:00,
2013-01-16 08:37:00,32.4,31.9,30.13,ENE,59,0.0,0.0,98,0.00,,,0.17,Wunderground v.1.15,2013-01-16 13:37:00,
2013-01-16 08:39:00,32.4,31.9,30.12,ENE,59,0.0,0.0,98,0.00,,,0.17,Wunderground v.1.15,2013-01-16 13:39:00,
2013-01-16 08:41:00,32.4,31.9,30.12,ENE,59,0.0,0.0,98,0.00,,,0.17,Wunderground v.1.15,2013-01-16 13:41:00,
2013-01-16 08:42:00,32.4,31.9,30.12,ENE,59,0.0,0.0,98,0.00,,,0.17,Wunderground v.1.15,2013-01-16 13:42:00,
2013-01-16 08:43:00,32.3,31.8,30.12,ENE,59,0.0,0.0,98,0.00,,,0.17,Wunderground v.1.15,2013-01-16 13:43:00,
2013-01-16 08:47:00,32.4,31.9,30.13,ENE,59,0.0,0.0,98,0.00,,,0.17,Wunderground v.1.15,2013-01-16 13:47:00,
2013-01-16 08:48:00,32.4,31.9,30.13,ENE,59,0.0,0.0,98,0.00,,,0.17,Wunderground v.1.15,2013-01-16 13:48:00,
2013-01-16 08:49:00,32.4,31.9,30.13,ENE,59,0.0,0.0,98,0.00,,,0.17,Wunderground v.1.15,2013-01-16 13:49:00,
2013-01-16 08:50:00,32.4,31.9,30.14,ENE,59,0.0,0.0,98,0.00,,,0.17,Wunderground v.1.15,2013-01-16 13:50:00,
2013-01-16 08:52:00,32.4,31.9,30.14,ENE,59,0.0,0.0,98,0.00,,,0.17,Wunderground v.1.15,2013-01-16 13:52:00,
2013-01-16 08:54:00,32.4,31.9,30.14,ENE,59,0.0,0.0,98,0.00,,,0.17,Wunderground v.1.15,2013-01-16 13:54:00,
2013-01-16 08:55:00,32.4,31.9,30.14,ENE,59,0.0,0.0,98,0.00,,,0.17,Wunderground v.1.15,2013-01-16 13:55:00,
2013-01-16 08:56:00,32.4,31.9,30.15,ENE,59,0.0,0.0,98,0.00,,,0.17,Wunderground v.1.15,2013-01-16 13:56:00,
2013-01-16 09:00:00,32.4,31.9,30.15,ENE,59,0.0,0.0,98,0.00,,,0.17,Wunderground v.1.15,2013-01-16 14:00:00,
2013-01-16 09:01:00,32.4,31.9,30.15,ENE,59,0.0,0.0,98,0.00,,,0.17,Wunderground v.1.15,2013-01-16 14:01:00,
2013-01-16 09:02:00,32.4,31.9,30.16,ENE,59,0.0,0.0,98,0.00,,,0.17,Wunderground v.1.15,2013-01-16 14:02:00,
2013-01-16 09:04:00,32.4,31.9,30.16,ENE,59,0.0,0.0,98,0.00,,,0.17,Wunderground v.1.15,2013-01-16 14:04:00,
2013-01-16 09:08:00,32.5,32.0,30.16,ENE,59,0.0,0.0,98,0.00,,,0.17,Wunderground v.1.15,2013-01-16 14:08:00,
2013-01-16 09:09:00,32.5,32.0,30.16,ENE,59,0.0,0.0,98,0.00,,,0.17,Wunderground v.1.15,2013-01-16 14:09:00,
2013-01-16 09:11:00,32.5,32.0,30.16,ENE,59,0.0,0.0,98,0.00,,,0.17,Wunderground v.1.15,2013-01-16 14:11:00,
2013-01-16 09:13:00,32.5,32.0,30.17,ENE,59,0.0,0.0,98,0.00,,,0.17,Wunderground v.1.15,2013-01-16 14:13:00,
2013-01-16 09:15:00,32.5,32.0,30.17,ENE,59,0.0,0.0,98,0.00,,,0.17,Wunderground v.1.15,2013-01-16 14:15:00,
2013-01-16 09:19:00,32.5,32.0,30.16,ENE,59,0.0,0.0,98,0.00,,,0.17,Wunderground v.1.15,2013-01-16 14:19:00,
2013-01-16 09:20:00,32.5,32.0,30.16,ENE,59,0.0,0.0,98,0.00,,,0.17,Wunderground v.1.15,2013-01-16 14:20:00,
2013-01-16 09:25:00,32.5,32.0,30.16,ENE,59,0.0,0.0,98,0.00,,,0.17,Wunderground v.1.15,2013-01-16 14:25:00,
2013-01-16 09:27:00,32.5,32.0,30.16,ENE,59,0.0,0.0,98,0.00,,,0.17,Wunderground v.1.15,2013-01-16 14:27:00,
2013-01-16 09:28:00,32.5,32.0,30.16,ENE,59,0.0,0.0,98,0.00,,,0.17,Wunderground v.1.15,2013-01-16 14:28:00,
2013-01-16 09:31:00,32.5,32.0,30.16,ENE,59,0.0,0.0,98,0.00,,,0.17,Wunderground v.1.15,2013-01-16 14:31:00,
2013-01-16 09:32:00,32.5,32.0,30.16,ENE,59,0.0,0.0,98,0.00,,,0.17,Wunderground v.1.15,2013-01-16 14:32:00,
2013-01-16 09:33:00,32.5,32.0,30.16,ENE,59,0.0,0.0,98,0.00,,,0.17,Wunderground v.1.15,2013-01-16 14:33:00,
2013-01-16 09:35:00,32.5,32.0,30.17,ENE,59,0.0,0.0,98,0.00,,,0.17,Wunderground v.1.15,2013-01-16 14:35:00,
2013-01-16 09:38:00,32.5,32.0,30.17,ENE,59,0.0,0.0,98,0.00,,,0.17,Wunderground v.1.15,2013-01-16 14:38:00,
2013-01-16 09:41:00,32.6,32.1,30.18,ENE,59,0.0,0.0,98,0.00,,,0.17,Wunderground v.1.15,2013-01-16 14:41:00,
2013-01-16 09:42:00,32.6,32.1,30.18,ENE,59,0.0,0.0,98,0.00,,,0.17,Wunderground v.1.15,2013-01-16 14:42:00,
2013-01-16 09:43:00,32.6,32.1,30.19,ENE,59,0.0,0.0,98,0.00,,,0.17,Wunderground v.1.15,2013-01-16 14:43:00,
2013-01-16 09:44:00,32.6,32.1,30.19,ENE,59,0.0,0.0,98,0.00,,,0.17,Wunderground v.1.15,2013-01-16 14:44:00,
2013-01-16 09:47:00,32.6,32.1,30.19,ENE,59,0.0,0.0,98,0.00,,,0.17,Wunderground v.1.15,2013-01-16 14:47:00,
2013-01-16 09:49:00,32.6,32.1,30.18,ENE,59,0.0,0.0,98,0.00,,,0.17,Wunderground v.1.15,2013-01-16 14:49:00,
2013-01-16 09:50:00,32.6,32.1,30.18,ENE,59,0.0,0.0,98,0.00,,,0.17,Wunderground v.1.15,2013-01-16 14:50:00,
2013-01-16 09:54:00,32.6,32.1,30.18,ENE,59,0.0,0.0,98,0.00,,,0.17,Wunderground v.1.15,2013-01-16 14:54:00,
2013-01-16 09:55:00,32.5,32.0,30.18,ENE,59,0.0,0.0,98,0.00,,,0.17,Wunderground v.1.15,2013-01-16 14:55:00,
2013-01-16 09:58:00,32.5,32.0,30.17,ENE,59,0.0,0.0,98,0.00,,,0.17,Wunderground v.1.15,2013-01-16 14:58:00,
2013-01-16 09:59:00,32.5,32.0,30.17,ENE,59,0.0,0.0,98,0.00,,,0.17,Wunderground v.1.15,2013-01-16 14:59:00,
2013-01-16 10:00:00,32.5,32.0,30.18,ENE,59,0.0,0.0,98,0.00,,,0.17,Wunderground v.1.15,2013-01-16 15:00:00,
2013-01-16 10:01:00,32.5,32.0,30.17,ENE,59,0.0,0.0,98,0.00,,,0.17,Wunderground v.1.15,2013-01-16 15:01:00,
2013-01-16 10:04:00,32.5,32.0,30.18,ENE,59,0.0,0.0,98,0.00,,,0.17,Wunderground v.1.15,2013-01-16 15:04:00,
2013-01-16 10:05:00,32.5,32.0,30.18,ENE,59,0.0,0.0,98,0.00,,,0.17,Wunderground v.1.15,2013-01-16 15:05:00,
2013-01-16 10:06:00,32.5,32.0,30.18,ENE,59,0.0,0.0,98,0.00,,,0.17,Wunderground v.1.15,2013-01-16 15:06:00,
2013-01-16 10:08:00,32.5,32.0,30.18,ENE,59,0.0,0.0,98,0.00,,,0.17,Wunderground v.1.15,2013-01-16 15:08:00,
2013-01-16 10:10:00,32.5,32.0,30.18,ENE,59,0.0,0.0,98,0.00,,,0.17,Wunderground v.1.15,2013-01-16 15:10:00,
2013-01-16 10:12:00,32.5,32.0,30.18,ENE,59,0.0,0.0,98,0.00,,,0.17,Wunderground v.1.15,2013-01-16 15:12:00,
2013-01-16 10:13:00,32.5,32.0,30.18,ENE,59,0.0,0.0,98,0.00,,,0.17,Wunderground v.1.15,2013-01-16 15:13:00,
2013-01-16 10:16:00,32.5,32.0,30.18,ENE,59,0.0,0.0,98,0.00,,,0.17,Wunderground v.1.15,2013-01-16 15:16:00,
2013-01-16 10:19:00,32.5,32.0,30.17,ENE,59,0.0,0.0,98,0.00,,,0.17,Wunderground v.1.15,2013-01-16 15:19:00,
2013-01-16 10:20:00,32.5,32.0,30.17,ENE,59,0.0,0.0,98,0.00,,,0.17,Wunderground v.1.15,2013-01-16 15:20:00,
2013-01-16 10:24:00,32.5,32.0,30.18,ENE,59,0.0,0.0,98,0.00,,,0.17,Wunderground v.1.15,2013-01-16 15:24:00,
2013-01-16 10:25:00,32.5,32.0,30.18,ENE,59,0.0,0.0,98,0.00,,,0.17,Wunderground v.1.15,2013-01-16 15:25:00,
2013-01-16 10:26:00,32.6,32.1,30.19,ENE,59,0.0,0.0,98,0.00,,,0.17,Wunderground v.1.15,2013-01-16 15:26:00,
2013-01-16 10:27:00,32.6,32.1,30.19,ENE,59,0.0,0.0,98,0.00,,,0.17,Wunderground v.1.15,2013-01-16 15:27:00,
2013-01-16 10:31:00,32.6,32.1,30.19,ENE,59,0.0,0.0,98,0.00,,,0.17,Wunderground v.1.15,2013-01-16 15:31:00,
2013-01-16 10:32:00,32.6,32.4,30.19,ENE,59,0.0,0.0,99,0.00,,,0.17,Wunderground v.1.15,2013-01-16 15:32:00,
2013-01-16 10:36:00,32.6,32.4,30.19,ENE,59,0.0,0.0,99,0.00,,,0.17,Wunderground v.1.15,2013-01-16 15:36:00,
2013-01-16 10:37:00,32.6,32.4,30.18,ENE,59,0.0,0.0,99,0.00,,,0.17,Wunderground v.1.15,2013-01-16 15:37:00,
2013-01-16 10:42:00,32.6,32.4,30.18,ENE,59,0.0,0.0,99,0.00,,,0.17,Wunderground v.1.15,2013-01-16 15:42:00,
2013-01-16 10:43:00,32.6,32.4,30.18,ENE,59,0.0,0.0,99,0.00,,,0.17,Wunderground v.1.15,2013-01-16 15:43:00,
2013-01-16 10:44:00,32.6,32.4,30.18,ENE,59,0.0,0.0,99,0.00,,,0.17,Wunderground v.1.15,2013-01-16 15:44:00,
2013-01-16 10:46:00,32.6,32.4,30.17,ENE,59,0.0,0.0,99,0.00,,,0.17,Wunderground v.1.15,2013-01-16 15:46:00,
2013-01-16 10:48:00,32.7,32.5,30.18,ENE,59,0.0,0.0,99,0.00,,,0.17,Wunderground v.1.15,2013-01-16 15:48:00,
2013-01-16 10:50:00,32.7,32.5,30.18,ENE,59,0.0,0.0,99,0.00,,,0.17,Wunderground v.1.15,2013-01-16 15:50:00,
2013-01-16 10:51:00,32.7,32.5,30.18,ENE,59,0.0,0.0,99,0.00,,,0.17,Wunderground v.1.15,2013-01-16 15:51:00,
2013-01-16 10:53:00,32.7,32.5,30.19,ENE,59,0.0,0.0,99,0.00,,,0.17,Wunderground v.1.15,2013-01-16 15:53:00,
2013-01-16 10:54:00,32.7,32.5,30.19,ENE,59,0.0,0.0,99,0.00,,,0.17,Wunderground v.1.15,2013-01-16 15:54:00,
2013-01-16 10:56:00,32.7,32.2,30.19,ENE,59,0.0,0.0,98,0.00,,,0.17,Wunderground v.1.15,2013-01-16 15:56:00,
2013-01-16 10:59:00,32.7,32.5,30.17,ENE,59,0.0,0.0,99,0.00,,,0.17,Wunderground v.1.15,2013-01-16 15:59:00,
2013-01-16 11:01:00,32.7,32.5,30.17,ENE,60,0.0,0.0,99,0.00,,,0.17,Wunderground v.1.15,2013-01-16 16:01:00,
2013-01-16 11:02:00,32.7,32.2,30.18,ENE,59,0.0,0.0,98,0.00,,,0.17,Wunderground v.1.15,2013-01-16 16:02:00,
2013-01-16 11:04:00,32.7,32.5,30.18,ENE,60,0.0,0.0,99,0.00,,,0.17,Wunderground v.1.15,2013-01-16 16:04:00,
2013-01-16 11:08:00,32.7,32.5,30.17,ENE,59,0.0,0.0,99,0.00,,,0.17,Wunderground v.1.15,2013-01-16 16:08:00,
2013-01-16 11:10:00,32.7,32.5,30.17,ENE,59,0.0,0.0,99,0.00,,,0.17,Wunderground v.1.15,2013-01-16 16:10:00,
2013-01-16 11:13:00,32.7,32.2,30.18,ENE,59,0.0,0.0,98,0.00,,,0.17,Wunderground v.1.15,2013-01-16 16:13:00,
2013-01-16 11:14:00,32.7,32.2,30.18,ENE,59,0.0,0.0,98,0.00,,,0.17,Wunderground v.1.15,2013-01-16 16:14:00,
2013-01-16 11:17:00,32.7,32.2,30.19,ENE,60,0.0,0.0,98,0.00,,,0.18,Wunderground v.1.15,2013-01-16 16:17:00,
2013-01-16 11:19:00,32.8,32.3,30.18,ENE,60,0.0,0.0,98,0.00,,,0.18,Wunderground v.1.15,2013-01-16 16:19:00,
2013-01-16 11:20:00,32.8,32.3,30.18,ENE,60,0.0,0.0,98,0.00,,,0.18,Wunderground v.1.15,2013-01-16 16:20:00,
2013-01-16 11:24:00,32.7,32.2,30.17,ENE,59,0.0,0.0,98,0.00,,,0.18,Wunderground v.1.15,2013-01-16 16:24:00,
2013-01-16 11:25:00,32.8,32.3,30.17,ENE,59,0.0,0.0,98,0.00,,,0.18,Wunderground v.1.15,2013-01-16 16:25:00,
2013-01-16 11:27:00,32.8,32.3,30.18,ENE,60,0.0,0.0,98,0.00,,,0.18,Wunderground v.1.15,2013-01-16 16:27:00,
2013-01-16 11:31:00,32.8,32.6,30.18,ENE,60,0.0,0.0,99,0.00,,,0.18,Wunderground v.1.15,2013-01-16 16:31:00,
2013-01-16 11:32:00,32.7,32.2,30.18,ENE,60,0.0,0.0,98,0.00,,,0.18,Wunderground v.1.15,2013-01-16 16:32:00,
2013-01-16 11:34:00,32.8,32.3,30.18,ENE,60,0.0,0.0,98,0.00,,,0.18,Wunderground v.1.15,2013-01-16 16:34:00,
2013-01-16 11:39:00,32.8,32.6,30.18,ENE,60,0.0,0.0,99,0.00,,,0.18,Wunderground v.1.15,2013-01-16 16:39:00,
2013-01-16 11:40:00,32.8,32.6,30.18,ENE,60,0.0,0.0,99,0.00,,,0.18,Wunderground v.1.15,2013-01-16 16:40:00,
2013-01-16 11:42:00,32.8,32.6,30.18,ENE,60,0.0,0.0,99,0.00,,,0.18,Wunderground v.1.15,2013-01-16 16:42:00,
2013-01-16 11:44:00,32.8,32.6,30.18,ENE,60,0.0,0.0,99,0.00,,,0.18,Wunderground v.1.15,2013-01-16 16:44:00,
2013-01-16 11:45:00,32.8,32.6,30.18,ENE,60,0.0,0.0,99,0.00,,,0.18,Wunderground v.1.15,2013-01-16 16:45:00,
2013-01-16 11:46:00,32.8,32.6,30.19,ENE,60,0.0,0.0,99,0.00,,,0.18,Wunderground v.1.15,2013-01-16 16:46:00,
2013-01-16 11:48:00,32.8,32.6,30.18,ENE,60,0.0,0.0,99,0.00,,,0.18,Wunderground v.1.15,2013-01-16 16:48:00,
2013-01-16 11:50:00,32.8,32.6,30.18,ENE,60,0.0,0.0,99,0.00,,,0.18,Wunderground v.1.15,2013-01-16 16:50:00,
2013-01-16 11:51:00,32.8,32.6,30.18,ENE,60,0.0,0.0,99,0.00,,,0.18,Wunderground v.1.15,2013-01-16 16:51:00,
2013-01-16 11:53:00,32.8,32.6,30.18,ENE,60,0.0,0.0,99,0.00,,,0.18,Wunderground v.1.15,2013-01-16 16:53:00,
2013-01-16 11:56:00,32.8,32.6,30.17,ENE,60,0.0,0.0,99,0.00,,,0.18,Wunderground v.1.15,2013-01-16 16:56:00,
2013-01-16 11:59:00,32.7,32.5,30.16,ENE,60,0.0,0.0,99,0.00,,,0.18,Wunderground v.1.15,2013-01-16 16:59:00,
2013-01-16 12:00:00,32.7,32.5,30.16,ENE,60,0.0,0.0,99,0.00,,,0.18,Wunderground v.1.15,2013-01-16 17:00:00,
2013-01-16 12:02:00,32.7,32.5,30.16,ENE,60,0.0,0.0,99,0.00,,,0.18,Wunderground v.1.15,2013-01-16 17:02:00,
2013-01-16 12:05:00,32.7,32.5,30.14,ENE,60,0.0,0.0,99,0.00,,,0.18,Wunderground v.1.15,2013-01-16 17:05:00,
2013-01-16 12:06:00,32.7,32.5,30.14,ENE,60,0.0,0.0,99,0.00,,,0.18,Wunderground v.1.15,2013-01-16 17:06:00,
2013-01-16 12:07:00,32.7,32.5,30.16,ENE,60,0.0,0.0,99,0.00,,,0.18,Wunderground v.1.15,2013-01-16 17:07:00,
2013-01-16 12:09:00,32.8,32.6,30.18,ENE,60,0.0,0.0,99,0.00,,,0.18,Wunderground v.1.15,2013-01-16 17:09:00,
2013-01-16 12:12:00,32.8,32.6,30.17,ENE,60,0.0,0.0,99,0.00,,,0.18,Wunderground v.1.15,2013-01-16 17:12:00,
2013-01-16 12:13:00,32.7,32.5,30.16,ENE,60,0.0,0.0,99,0.00,,,0.18,Wunderground v.1.15,2013-01-16 17:13:00,
2013-01-16 12:16:00,32.7,32.5,30.14,ENE,60,0.0,0.0,99,0.00,,,0.18,Wunderground v.1.15,2013-01-16 17:16:00,
2013-01-16 12:18:00,32.7,32.5,30.14,ENE,60,0.0,0.0,99,0.00,,,0.18,Wunderground v.1.15,2013-01-16 17:18:00,
2013-01-16 12:23:00,32.8,32.6,30.12,ENE,60,0.0,0.0,99,0.00,,,0.18,Wunderground v.1.15,2013-01-16 17:23:00,
2013-01-16 12:24:00,32.8,32.6,30.12,ENE,60,0.0,0.0,99,0.00,,,0.18,Wunderground v.1.15,2013-01-16 17:24:00,
2013-01-16 12:25:00,32.8,32.6,30.13,ENE,60,0.0,0.0,99,0.00,,,0.18,Wunderground v.1.15,2013-01-16 17:25:00,
2013-01-16 12:27:00,32.8,32.6,30.16,ENE,60,0.0,0.0,99,0.00,,,0.18,Wunderground v.1.15,2013-01-16 17:27:00,
2013-01-16 12:29:00,32.8,32.6,30.16,ENE,60,0.0,0.0,99,0.00,,,0.18,Wunderground v.1.15,2013-01-16 17:29:00,
2013-01-16 12:30:00,32.8,32.6,30.16,ENE,60,0.0,0.0,99,0.00,,,0.18,Wunderground v.1.15,2013-01-16 17:30:00,
2013-01-16 12:35:00,32.8,32.6,30.16,ENE,60,0.0,0.0,99,0.00,,,0.18,Wunderground v.1.15,2013-01-16 17:35:00,
2013-01-16 12:36:00,32.8,32.6,30.16,ENE,60,0.0,0.0,99,0.00,,,0.18,Wunderground v.1.15,2013-01-16 17:36:00,
2013-01-16 12:38:00,32.8,32.6,30.16,ENE,60,0.0,0.0,99,0.00,,,0.18,Wunderground v.1.15,2013-01-16 17:38:00,
2013-01-16 12:41:00,32.8,32.6,30.16,ENE,60,0.0,0.0,99,0.00,,,0.18,Wunderground v.1.15,2013-01-16 17:41:00,
2013-01-16 12:43:00,32.8,32.6,30.15,ENE,60,0.0,0.0,99,0.00,,,0.18,Wunderground v.1.15,2013-01-16 17:43:00,
2013-01-16 12:45:00,32.8,32.6,30.15,ENE,60,0.0,0.0,99,0.00,,,0.18,Wunderground v.1.15,2013-01-16 17:45:00,
2013-01-16 12:46:00,32.8,32.6,30.15,ENE,60,0.0,0.0,99,0.00,,,0.18,Wunderground v.1.15,2013-01-16 17:46:00,
2013-01-16 12:48:00,32.8,32.6,30.16,ENE,60,0.0,0.0,99,0.00,,,0.18,Wunderground v.1.15,2013-01-16 17:48:00,
2013-01-16 12:50:00,32.8,32.6,30.16,ENE,60,0.0,0.0,99,0.00,,,0.18,Wunderground v.1.15,2013-01-16 17:50:00,
2013-01-16 12:51:00,32.8,32.6,30.16,ENE,60,0.0,0.0,99,0.00,,,0.18,Wunderground v.1.15,2013-01-16 17:51:00,
2013-01-16 12:55:00,32.8,32.6,30.16,ENE,60,0.0,0.0,99,0.00,,,0.18,Wunderground v.1.15,2013-01-16 17:55:00,
2013-01-16 12:56:00,32.8,32.6,30.16,ENE,60,0.0,0.0,99,0.00,,,0.18,Wunderground v.1.15,2013-01-16 17:56:00,
2013-01-16 12:59:00,32.8,32.6,30.16,ENE,60,0.0,0.0,99,0.00,,,0.18,Wunderground v.1.15,2013-01-16 17:59:00,
2013-01-16 13:00:00,32.8,32.6,30.16,ENE,60,0.0,0.0,99,0.00,,,0.18,Wunderground v.1.15,2013-01-16 18:00:00,
2013-01-16 13:02:00,32.8,32.6,30.16,ENE,60,0.0,0.0,99,0.00,,,0.19,Wunderground v.1.15,2013-01-16 18:02:00,
2013-01-16 13:03:00,32.8,32.6,30.17,ENE,60,0.0,0.0,99,0.00,,,0.19,Wunderground v.1.15,2013-01-16 18:03:00,
2013-01-16 13:04:00,32.8,32.6,30.17,ENE,60,0.0,0.0,99,0.00,,,0.19,Wunderground v.1.15,2013-01-16 18:04:00,
2013-01-16 13:08:00,32.8,32.6,30.16,ENE,60,0.0,0.0,99,0.00,,,0.19,Wunderground v.1.15,2013-01-16 18:08:00,
2013-01-16 13:09:00,32.9,32.7,30.16,ENE,60,0.0,0.0,99,0.00,,,0.19,Wunderground v.1.15,2013-01-16 18:09:00,
2013-01-16 13:12:00,32.9,32.7,30.16,ENE,60,0.0,0.0,99,0.00,,,0.19,Wunderground v.1.15,2013-01-16 18:12:00,
2013-01-16 13:13:00,32.8,32.6,30.16,ENE,60,0.0,0.0,99,0.00,,,0.19,Wunderground v.1.15,2013-01-16 18:13:00,
2013-01-16 13:17:00,32.9,32.7,30.15,ENE,60,0.0,0.0,99,0.00,,,0.19,Wunderground v.1.15,2013-01-16 18:17:00,
2013-01-16 13:19:00,32.9,32.7,30.16,ENE,60,0.0,0.0,99,0.00,,,0.19,Wunderground v.1.15,2013-01-16 18:19:00,
2013-01-16 13:20:00,32.9,32.7,30.16,ENE,60,0.0,0.0,99,0.00,,,0.19,Wunderground v.1.15,2013-01-16 18:20:00,
2013-01-16 13:24:00,32.9,32.7,30.15,ENE,60,0.0,0.0,99,0.00,,,0.19,Wunderground v.1.15,2013-01-16 18:24:00,
2013-01-16 13:25:00,32.9,32.7,30.15,ENE,60,0.0,0.0,99,0.00,,,0.19,Wunderground v.1.15,2013-01-16 18:25:00,
2013-01-16 13:28:00,33.0,32.8,30.15,ENE,60,0.0,0.0,99,0.00,,,0.19,Wunderground v.1.15,2013-01-16 18:28:00,
2013-01-16 13:29:00,33.0,32.8,30.15,ENE,60,0.0,0.0,99,0.00,,,0.19,Wunderground v.1.15,2013-01-16 18:29:00,
2013-01-16 13:30:00,33.0,32.8,30.15,ENE,60,0.0,0.0,99,0.00,,,0.19,Wunderground v.1.15,2013-01-16 18:30:00,
2013-01-16 13:31:00,33.0,32.8,30.15,ENE,60,0.0,0.0,99,0.00,,,0.19,Wunderground v.1.15,2013-01-16 18:31:00,
2013-01-16 13:35:00,32.9,32.7,30.16,ENE,60,0.0,0.0,99,0.00,,,0.19,Wunderground v.1.15,2013-01-16 18:35:00,
2013-01-16 13:36:00,32.9,32.7,30.16,ENE,60,0.0,0.0,99,0.00,,,0.19,Wunderground v.1.15,2013-01-16 18:36:00,
2013-01-16 13:37:00,32.9,32.7,30.16,ENE,60,0.0,0.0,99,0.00,,,0.19,Wunderground v.1.15,2013-01-16 18:37:00,
2013-01-16 13:41:00,32.9,32.7,30.17,ENE,60,0.0,0.0,99,0.00,,,0.19,Wunderground v.1.15,2013-01-16 18:41:00,
2013-01-16 13:43:00,32.9,32.7,30.17,ENE,60,0.0,0.0,99,0.00,,,0.19,Wunderground v.1.15,2013-01-16 18:43:00,
2013-01-16 13:45:00,32.9,32.7,30.17,ENE,60,0.0,0.0,99,0.00,,,0.19,Wunderground v.1.15,2013-01-16 18:45:00,
2013-01-16 13:47:00,32.9,32.7,30.17,ENE,60,0.0,0.0,99,0.00,,,0.19,Wunderground v.1.15,2013-01-16 18:47:00,
2013-01-16 13:50:00,32.9,32.7,30.16,ENE,60,0.0,0.0,99,0.00,,,0.19,Wunderground v.1.15,2013-01-16 18:50:00,
2013-01-16 13:51:00,32.9,32.7,30.16,ENE,60,0.0,0.0,99,0.00,,,0.19,Wunderground v.1.15,2013-01-16 18:51:00,
2013-01-16 13:55:00,32.9,32.7,30.17,ENE,60,0.0,0.0,99,0.00,,,0.20,Wunderground v.1.15,2013-01-16 18:55:00,
2013-01-16 13:57:00,32.9,32.7,30.17,ENE,60,0.0,0.0,99,0.00,,,0.20,Wunderground v.1.15,2013-01-16 18:57:00,
2013-01-16 13:58:00,32.9,32.7,30.16,ENE,60,0.0,0.0,99,0.00,,,0.20,Wunderground v.1.15,2013-01-16 18:58:00,
2013-01-16 14:02:00,32.9,32.7,30.16,ENE,60,0.0,0.0,99,0.00,,,0.20,Wunderground v.1.15,2013-01-16 19:02:00,
2013-01-16 14:03:00,32.9,32.7,30.16,ENE,60,0.0,0.0,99,0.00,,,0.20,Wunderground v.1.15,2013-01-16 19:03:00,
2013-01-16 14:04:00,32.9,32.7,30.16,ENE,60,0.0,0.0,99,0.00,,,0.20,Wunderground v.1.15,2013-01-16 19:04:00,
2013-01-16 14:06:00,32.9,32.7,30.16,ENE,60,0.0,0.0,99,0.00,,,0.20,Wunderground v.1.15,2013-01-16 19:06:00,
2013-01-16 14:10:00,33.0,32.8,30.16,ENE,60,0.0,0.0,99,0.00,,,0.20,Wunderground v.1.15,2013-01-16 19:10:00,
2013-01-16 14:12:00,33.0,32.8,30.16,ENE,59,0.0,0.0,99,0.00,,,0.20,Wunderground v.1.15,2013-01-16 19:12:00,
2013-01-16 14:14:00,33.0,32.8,30.16,ENE,60,0.0,0.0,99,0.00,,,0.20,Wunderground v.1.15,2013-01-16 19:14:00,
2013-01-16 14:15:00,33.0,32.8,30.16,ENE,60,0.0,0.0,99,0.00,,,0.20,Wunderground v.1.15,2013-01-16 19:15:00,
2013-01-16 14:16:00,33.0,32.8,30.16,ENE,60,0.0,0.0,99,0.00,,,0.20,Wunderground v.1.15,2013-01-16 19:16:00,
2013-01-16 14:19:00,32.9,32.7,30.16,ENE,60,0.0,0.0,99,0.00,,,0.20,Wunderground v.1.15,2013-01-16 19:19:00,
2013-01-16 14:22:00,33.0,32.8,30.16,ENE,59,0.0,0.0,99,0.00,,,0.20,Wunderground v.1.15,2013-01-16 19:22:00,
2013-01-16 14:23:00,33.0,32.8,30.16,ENE,60,0.0,0.0,99,0.00,,,0.20,Wunderground v.1.15,2013-01-16 19:23:00,
2013-01-16 14:27:00,33.0,32.8,30.16,ENE,60,0.0,0.0,99,0.00,,,0.21,Wunderground v.1.15,2013-01-16 19:27:00,
2013-01-16 14:29:00,33.0,32.8,30.16,ENE,60,0.0,0.0,99,0.00,,,0.21,Wunderground v.1.15,2013-01-16 19:29:00,
2013-01-16 14:31:00,33.0,32.8,30.15,ENE,60,0.0,0.0,99,0.00,,,0.21,Wunderground v.1.15,2013-01-16 19:31:00,
2013-01-16 14:32:00,33.0,32.5,30.16,ENE,60,0.0,0.0,98,0.00,,,0.21,Wunderground v.1.15,2013-01-16 19:32:00,
2013-01-16 14:36:00,33.0,32.8,30.16,ENE,60,0.0,0.0,99,0.00,,,0.21,Wunderground v.1.15,2013-01-16 19:36:00,
2013-01-16 14:37:00,33.1,32.9,30.16,ENE,59,0.0,0.0,99,0.00,,,0.21,Wunderground v.1.15,2013-01-16 19:37:00,
2013-01-16 14:38:00,33.1,32.9,30.16,ENE,60,0.0,0.0,99,0.00,,,0.21,Wunderground v.1.15,2013-01-16 19:38:00,
2013-01-16 14:39:00,33.1,32.9,30.16,ENE,60,0.0,0.0,99,0.00,,,0.21,Wunderground v.1.15,2013-01-16 19:39:00,
2013-01-16 14:41:00,33.1,32.9,30.16,ENE,59,0.0,0.0,99,0.00,,,0.21,Wunderground v.1.15,2013-01-16 19:41:00,
2013-01-16 14:44:00,33.0,32.8,30.16,ENE,59,0.0,0.0,99,0.00,,,0.21,Wunderground v.1.15,2013-01-16 19:44:00,
2013-01-16 14:46:00,33.1,32.9,30.16,ENE,60,0.0,0.0,99,0.00,,,0.21,Wunderground v.1.15,2013-01-16 19:46:00,
2013-01-16 14:47:00,33.0,32.8,30.15,ENE,60,0.0,0.0,99,0.00,,,0.21,Wunderground v.1.15,2013-01-16 19:47:00,
2013-01-16 14:49:00,33.1,32.9,30.16,ENE,59,0.0,0.0,99,0.00,,,0.21,Wunderground v.1.15,2013-01-16 19:49:00,
2013-01-16 14:50:00,33.1,32.9,30.16,ENE,59,0.0,0.0,99,0.00,,,0.21,Wunderground v.1.15,2013-01-16 19:50:00,
2013-01-16 14:55:00,33.1,32.9,30.16,ENE,59,0.0,0.0,99,0.00,,,0.21,Wunderground v.1.15,2013-01-16 19:55:00,
2013-01-16 14:56:00,33.1,32.9,30.16,ENE,59,0.0,0.0,99,0.00,,,0.21,Wunderground v.1.15,2013-01-16 19:56:00,
2013-01-16 14:57:00,33.1,32.9,30.15,ENE,60,0.0,0.0,99,0.00,,,0.21,Wunderground v.1.15,2013-01-16 19:57:00,
2013-01-16 14:58:00,33.1,32.9,30.15,ENE,59,0.0,0.0,99,0.00,,,0.21,Wunderground v.1.15,2013-01-16 19:58:00,
2013-01-16 15:02:00,33.1,32.9,30.16,ENE,59,0.0,0.0,99,0.00,,,0.21,Wunderground v.1.15,2013-01-16 20:02:00,
2013-01-16 15:03:00,33.2,33.0,30.16,ENE,59,0.0,0.0,99,0.00,,,0.21,Wunderground v.1.15,2013-01-16 20:03:00,
2013-01-16 15:05:00,33.2,33.0,30.16,ENE,59,0.0,0.0,99,0.00,,,0.21,Wunderground v.1.15,2013-01-16 20:05:00,
2013-01-16 15:07:00,33.2,33.0,30.16,ENE,59,0.0,0.0,99,0.00,,,0.21,Wunderground v.1.15,2013-01-16 20:07:00,
2013-01-16 15:10:00,33.2,33.0,30.16,ENE,59,0.0,0.0,99,0.00,,,0.21,Wunderground v.1.15,2013-01-16 20:10:00,
2013-01-16 15:14:00,33.2,33.0,30.16,ENE,59,0.0,0.0,99,0.00,,,0.21,Wunderground v.1.15,2013-01-16 20:14:00,
2013-01-16 15:16:00,33.2,33.0,30.16,ENE,59,0.0,0.0,99,0.00,,,0.21,Wunderground v.1.15,2013-01-16 20:16:00,
2013-01-16 15:18:00,33.2,33.0,30.16,ENE,59,0.0,0.0,99,0.00,,,0.21,Wunderground v.1.15,2013-01-16 20:18:00,
2013-01-16 15:20:00,33.2,33.0,30.16,ENE,59,0.0,0.0,99,0.00,,,0.21,Wunderground v.1.15,2013-01-16 20:20:00,
2013-01-16 15:21:00,33.2,33.0,30.16,ENE,59,0.0,0.0,99,0.00,,,0.21,Wunderground v.1.15,2013-01-16 20:21:00,
2013-01-16 15:23:00,33.2,33.0,30.16,ENE,59,0.0,0.0,99,0.00,,,0.21,Wunderground v.1.15,2013-01-16 20:23:00,
2013-01-16 15:26:00,33.3,33.0,30.15,ENE,59,0.0,0.0,99,0.00,,,0.21,Wunderground v.1.15,2013-01-16 20:26:00,
2013-01-16 15:28:00,33.2,33.0,30.16,ENE,59,0.0,0.0,99,0.00,,,0.21,Wunderground v.1.15,2013-01-16 20:28:00,
2013-01-16 15:31:00,33.2,33.0,30.17,ENE,59,0.0,0.0,99,0.00,,,0.22,Wunderground v.1.15,2013-01-16 20:31:00,
2013-01-16 15:32:00,33.3,33.0,30.17,ENE,59,0.0,0.0,99,0.00,,,0.22,Wunderground v.1.15,2013-01-16 20:32:00,
2013-01-16 15:36:00,33.3,33.0,30.17,ENE,59,0.0,0.0,99,0.00,,,0.22,Wunderground v.1.15,2013-01-16 20:36:00,
2013-01-16 15:37:00,33.3,33.0,30.17,ENE,59,0.0,0.0,99,0.00,,,0.22,Wunderground v.1.15,2013-01-16 20:37:00,
2013-01-16 15:39:00,33.3,33.0,30.17,ENE,59,0.0,0.0,99,0.00,,,0.22,Wunderground v.1.15,2013-01-16 20:39:00,
2013-01-16 15:41:00,33.3,33.0,30.17,ENE,59,0.0,0.0,99,0.00,,,0.22,Wunderground v.1.15,2013-01-16 20:41:00,
2013-01-16 15:43:00,33.3,33.0,30.16,ENE,59,0.0,0.0,99,0.00,,,0.22,Wunderground v.1.15,2013-01-16 20:43:00,
2013-01-16 15:44:00,33.4,33.1,30.16,ENE,59,0.0,0.0,99,0.00,,,0.22,Wunderground v.1.15,2013-01-16 20:44:00,
2013-01-16 15:46:00,33.4,33.1,30.16,ENE,59,0.0,0.0,99,0.00,,,0.22,Wunderground v.1.15,2013-01-16 20:46:00,
2013-01-16 15:47:00,33.4,33.1,30.17,ENE,59,0.0,0.0,99,0.00,,,0.22,Wunderground v.1.15,2013-01-16 20:47:00,
2013-01-16 15:50:00,33.3,33.0,30.17,ENE,59,0.0,0.0,99,0.00,,,0.22,Wunderground v.1.15,2013-01-16 20:50:00,
2013-01-16 15:53:00,33.3,33.0,30.16,ENE,59,0.0,0.0,99,0.00,,,0.23,Wunderground v.1.15,2013-01-16 20:53:00,
2013-01-16 15:55:00,33.3,33.0,30.16,ENE,59,0.0,0.0,99,0.00,,,0.23,Wunderground v.1.15,2013-01-16 20:55:00,
2013-01-16 15:56:00,33.4,33.1,30.16,ENE,59,0.0,0.0,99,0.00,,,0.23,Wunderground v.1.15,2013-01-16 20:56:00,
2013-01-16 15:59:00,33.4,33.1,30.17,ENE,59,0.0,0.0,99,0.00,,,0.23,Wunderground v.1.15,2013-01-16 20:59:00,
2013-01-16 16:00:00,33.4,33.1,30.17,ENE,59,0.0,0.0,99,0.00,,,0.23,Wunderground v.1.15,2013-01-16 21:00:00,
2013-01-16 16:04:00,33.4,33.1,30.18,ENE,59,0.0,0.0,99,0.00,,,0.23,Wunderground v.1.15,2013-01-16 21:04:00,
2013-01-16 16:05:00,33.4,33.1,30.18,ENE,59,0.0,0.0,99,0.00,,,0.23,Wunderground v.1.15,2013-01-16 21:05:00,
2013-01-16 16:06:00,33.4,33.1,30.18,ENE,59,0.0,0.0,99,0.00,,,0.23,Wunderground v.1.15,2013-01-16 21:06:00,
2013-01-16 16:10:00,33.5,33.2,30.18,ENE,59,0.0,0.0,99,0.00,,,0.23,Wunderground v.1.15,2013-01-16 21:10:00,
2013-01-16 16:11:00,33.5,33.2,30.18,ENE,59,0.0,0.0,99,0.00,,,0.23,Wunderground v.1.15,2013-01-16 21:11:00,
2013-01-16 16:12:00,33.5,33.2,30.18,ENE,59,0.0,0.0,99,0.00,,,0.23,Wunderground v.1.15,2013-01-16 21:12:00,
2013-01-16 16:16:00,33.5,33.2,30.17,ENE,59,0.0,0.0,99,0.00,,,0.23,Wunderground v.1.15,2013-01-16 21:16:00,
2013-01-16 16:17:00,33.5,33.2,30.17,ENE,59,0.0,0.0,99,0.00,,,0.23,Wunderground v.1.15,2013-01-16 21:17:00,
2013-01-16 16:20:00,33.5,33.2,30.18,ENE,59,0.0,0.0,99,0.00,,,0.23,Wunderground v.1.15,2013-01-16 21:20:00,
2013-01-16 16:22:00,33.5,33.2,30.17,ENE,59,0.0,0.0,99,0.00,,,0.23,Wunderground v.1.15,2013-01-16 21:22:00,
2013-01-16 16:26:00,33.5,33.2,30.17,ENE,59,0.0,0.0,99,0.00,,,0.23,Wunderground v.1.15,2013-01-16 21:26:00,
2013-01-16 16:27:00,33.5,33.2,30.17,ENE,59,0.0,0.0,99,0.00,,,0.23,Wunderground v.1.15,2013-01-16 21:27:00,
2013-01-16 16:28:00,33.6,33.3,30.17,ENE,59,0.0,0.0,99,0.00,,,0.23,Wunderground v.1.15,2013-01-16 21:28:00,
2013-01-16 16:32:00,33.6,33.3,30.17,ENE,59,0.0,0.0,99,0.00,,,0.23,Wunderground v.1.15,2013-01-16 21:32:00,
2013-01-16 16:34:00,33.6,33.3,30.17,ENE,59,0.0,0.0,99,0.00,,,0.23,Wunderground v.1.15,2013-01-16 21:34:00,
2013-01-16 16:39:00,33.6,33.3,30.18,ENE,59,0.0,0.0,99,0.00,,,0.23,Wunderground v.1.15,2013-01-16 21:39:00,
2013-01-16 16:40:00,33.6,33.3,30.17,ENE,59,0.0,0.0,99,0.00,,,0.23,Wunderground v.1.15,2013-01-16 21:40:00,
2013-01-16 16:41:00,33.6,33.3,30.17,ENE,59,0.0,0.0,99,0.00,,,0.23,Wunderground v.1.15,2013-01-16 21:41:00,
2013-01-16 16:44:00,33.6,33.3,30.17,ENE,59,0.0,0.0,99,0.00,,,0.23,Wunderground v.1.15,2013-01-16 21:44:00,
2013-01-16 16:46:00,33.6,33.3,30.17,ENE,59,0.0,0.0,99,0.00,,,0.23,Wunderground v.1.15,2013-01-16 21:46:00,
2013-01-16 16:48:00,33.6,33.3,30.18,ENE,59,0.0,0.0,99,0.00,,,0.23,Wunderground v.1.15,2013-01-16 21:48:00,
2013-01-16 16:49:00,33.6,33.3,30.18,ENE,59,0.0,0.0,99,0.00,,,0.23,Wunderground v.1.15,2013-01-16 21:49:00,
2013-01-16 16:51:00,33.6,33.3,30.19,ENE,59,0.0,0.0,99,0.00,,,0.23,Wunderground v.1.15,2013-01-16 21:51:00,
2013-01-16 16:52:00,33.6,33.3,30.19,ENE,59,0.0,0.0,99,0.00,,,0.23,Wunderground v.1.15,2013-01-16 21:52:00,
2013-01-16 16:54:00,33.7,33.4,30.18,ENE,59,0.0,0.0,99,0.00,,,0.23,Wunderground v.1.15,2013-01-16 21:54:00,
2013-01-16 16:58:00,33.7,33.4,30.19,ENE,58,0.0,0.0,99,0.00,,,0.23,Wunderground v.1.15,2013-01-16 21:58:00,
2013-01-16 16:59:00,33.7,33.4,30.19,ENE,58,0.0,4.0,99,0.00,,,0.23,Wunderground v.1.15,2013-01-16 21:59:00,
2013-01-16 17:00:00,33.7,33.4,30.19,ENE,58,0.0,0.0,99,0.00,,,0.23,Wunderground v.1.15,2013-01-16 22:00:00,
2013-01-16 17:03:00,33.7,33.4,30.18,ENE,58,1.0,2.0,99,0.00,,,0.23,Wunderground v.1.15,2013-01-16 22:03:00,
2013-01-16 17:08:00,33.7,33.4,30.20,ENE,58,1.0,2.0,99,0.00,,,0.24,Wunderground v.1.15,2013-01-16 22:08:00,
2013-01-16 17:09:00,33.7,33.4,30.20,ENE,58,1.0,2.0,99,0.00,,,0.24,Wunderground v.1.15,2013-01-16 22:09:00,
2013-01-16 17:13:00,33.7,33.4,30.19,ENE,58,1.0,1.0,99,0.00,,,0.24,Wunderground v.1.15,2013-01-16 22:13:00,
2013-01-16 17:14:00,33.7,33.4,30.19,ENE,58,1.0,1.0,99,0.00,,,0.24,Wunderground v.1.15,2013-01-16 22:14:00,
2013-01-16 17:15:00,33.7,33.4,30.18,ENE,58,1.0,2.0,99,0.00,,,0.24,Wunderground v.1.15,2013-01-16 22:15:00,
2013-01-16 17:16:00,33.7,33.4,30.18,ENE,58,1.0,3.0,99,0.00,,,0.24,Wunderground v.1.15,2013-01-16 22:16:00,
2013-01-16 17:18:00,33.7,33.4,30.18,ENE,58,1.0,3.0,99,0.00,,,0.24,Wunderground v.1.15,2013-01-16 22:18:00,
2013-01-16 17:22:00,33.7,33.4,30.19,ENE,58,1.0,4.0,99,0.00,,,0.24,Wunderground v.1.15,2013-01-16 22:22:00,
2013-01-16 17:24:00,33.7,33.4,30.19,ENE,58,1.0,4.0,99,0.00,,,0.24,Wunderground v.1.15,2013-01-16 22:24:00,
2013-01-16 17:27:00,33.7,33.4,30.20,ENE,58,1.0,4.0,99,0.00,,,0.24,Wunderground v.1.15,2013-01-16 22:27:00,
2013-01-16 17:29:00,33.7,33.4,30.19,ENE,58,1.0,4.0,99,0.00,,,0.24,Wunderground v.1.15,2013-01-16 22:29:00,
2013-01-16 17:31:00,33.7,33.4,30.19,ENE,58,1.0,1.0,99,0.00,,,0.24,Wunderground v.1.15,2013-01-16 22:31:00,
2013-01-16 17:34:00,33.7,33.4,30.20,ENE,58,1.0,2.0,99,0.00,,,0.24,Wunderground v.1.15,2013-01-16 22:34:00,
2013-01-16 17:36:00,33.7,33.4,30.18,ENE,58,1.0,3.0,99,0.00,,,0.24,Wunderground v.1.15,2013-01-16 22:36:00,
2013-01-16 17:37:00,33.7,33.4,30.18,ENE,58,1.0,3.0,99,0.00,,,0.24,Wunderground v.1.15,2013-01-16 22:37:00,
2013-01-16 17:40:00,33.8,33.5,30.18,ENE,57,1.0,1.0,99,0.00,,,0.24,Wunderground v.1.15,2013-01-16 22:40:00,
2013-01-16 17:42:00,33.7,33.4,30.18,ENE,57,1.0,1.0,99,0.00,,,0.24,Wunderground v.1.15,2013-01-16 22:42:00,
2013-01-16 17:43:00,33.7,33.4,30.19,ENE,57,1.0,1.0,99,0.00,,,0.24,Wunderground v.1.15,2013-01-16 22:43:00,
2013-01-16 17:46:00,33.7,33.4,30.19,ENE,57,1.0,3.0,99,0.00,,,0.24,Wunderground v.1.15,2013-01-16 22:46:00,
2013-01-16 17:50:00,33.8,33.5,30.19,ENE,57,0.0,0.0,99,0.00,,,0.24,Wunderground v.1.15,2013-01-16 22:50:00,
2013-01-16 17:51:00,33.8,33.5,30.19,ENE,57,0.0,0.0,99,0.00,,,0.24,Wunderground v.1.15,2013-01-16 22:51:00,
2013-01-16 17:55:00,33.8,33.5,30.19,ENE,57,0.0,0.0,99,0.00,,,0.24,Wunderground v.1.15,2013-01-16 22:55:00,
2013-01-16 17:56:00,33.8,33.5,30.18,ENE,57,0.0,0.0,99,0.00,,,0.24,Wunderground v.1.15,2013-01-16 22:56:00,
2013-01-16 18:00:00,33.8,33.5,30.19,ENE,57,0.0,0.0,99,0.00,,,0.24,Wunderground v.1.15,2013-01-16 23:00:00,
2013-01-16 18:01:00,33.8,33.5,30.18,ENE,57,0.0,0.0,99,0.00,,,0.24,Wunderground v.1.15,2013-01-16 23:01:00,
2013-01-16 18:04:00,33.8,33.5,30.19,ENE,57,0.0,0.0,99,0.00,,,0.24,Wunderground v.1.15,2013-01-16 23:04:00,
2013-01-16 18:06:00,33.8,33.5,30.17,ENE,57,0.0,0.0,99,0.00,,,0.24,Wunderground v.1.15,2013-01-16 23:06:00,
2013-01-16 18:07:00,33.8,33.5,30.18,ENE,57,0.0,0.0,99,0.00,,,0.24,Wunderground v.1.15,2013-01-16 23:07:00,
2013-01-16 18:08:00,33.8,33.5,30.18,ENE,57,0.0,0.0,99,0.00,,,0.24,Wunderground v.1.15,2013-01-16 23:08:00,
2013-01-16 18:10:00,33.8,33.5,30.19,ENE,57,0.0,0.0,99,0.00,,,0.24,Wunderground v.1.15,2013-01-16 23:10:00,
2013-01-16 18:11:00,33.8,33.5,30.18,ENE,57,0.0,0.0,99,0.00,,,0.24,Wunderground v.1.15,2013-01-16 23:11:00,
2013-01-16 18:14:00,33.8,33.5,30.18,ENE,57,0.0,0.0,99,0.00,,,0.24,Wunderground v.1.15,2013-01-16 23:14:00,
2013-01-16 18:17:00,33.8,33.5,30.18,ENE,57,0.0,0.0,99,0.00,,,0.24,Wunderground v.1.15,2013-01-16 23:17:00,
2013-01-16 18:20:00,33.8,33.5,30.19,ENE,57,0.0,0.0,99,0.00,,,0.24,Wunderground v.1.15,2013-01-16 23:20:00,
2013-01-16 18:21:00,33.8,33.5,30.18,ENE,57,0.0,0.0,99,0.00,,,0.24,Wunderground v.1.15,2013-01-16 23:21:00,
2013-01-16 18:25:00,33.8,33.5,30.19,ENE,57,0.0,0.0,99,0.00,,,0.24,Wunderground v.1.15,2013-01-16 23:25:00,
2013-01-16 18:26:00,33.8,33.5,30.19,ENE,57,0.0,0.0,99,0.00,,,0.24,Wunderground v.1.15,2013-01-16 23:26:00,
2013-01-16 18:27:00,33.8,33.5,30.19,ENE,57,0.0,0.0,99,0.00,,,0.24,Wunderground v.1.15,2013-01-16 23:27:00,
2013-01-16 18:30:00,33.8,33.5,30.18,ENE,57,0.0,0.0,99,0.00,,,0.24,Wunderground v.1.15,2013-01-16 23:30:00,
2013-01-16 18:31:00,33.8,33.5,30.18,ENE,57,0.0,0.0,99,0.00,,,0.24,Wunderground v.1.15,2013-01-16 23:31:00,
2013-01-16 18:36:00,33.8,33.5,30.19,ENE,57,0.0,0.0,99,0.00,,,0.24,Wunderground v.1.15,2013-01-16 23:36:00,
2013-01-16 18:37:00,33.8,33.5,30.18,ENE,57,0.0,0.0,99,0.00,,,0.24,Wunderground v.1.15,2013-01-16 23:37:00,
2013-01-16 18:39:00,33.8,33.5,30.18,ENE,57,0.0,0.0,99,0.00,,,0.24,Wunderground v.1.15,2013-01-16 23:39:00,
2013-01-16 18:40:00,33.8,33.5,30.18,ENE,57,0.0,0.0,99,0.00,,,0.24,Wunderground v.1.15,2013-01-16 23:40:00,
2013-01-16 18:41:00,33.8,33.5,30.18,ENE,57,0.0,0.0,99,0.00,,,0.24,Wunderground v.1.15,2013-01-16 23:41:00,
2013-01-16 18:44:00,33.9,33.6,30.19,ENE,57,0.0,0.0,99,0.00,,,0.24,Wunderground v.1.15,2013-01-16 23:44:00,
2013-01-16 18:46:00,33.9,33.6,30.20,ENE,57,0.0,0.0,99,0.00,,,0.24,Wunderground v.1.15,2013-01-16 23:46:00,
2013-01-16 18:47:00,33.9,33.6,30.21,ENE,57,0.0,0.0,99,0.00,,,0.24,Wunderground v.1.15,2013-01-16 23:47:00,
2013-01-16 18:48:00,33.9,33.6,30.20,ENE,57,0.0,0.0,99,0.00,,,0.24,Wunderground v.1.15,2013-01-16 23:48:00,
2013-01-16 18:51:00,33.9,33.6,30.21,ENE,57,0.0,0.0,99,0.00,,,0.24,Wunderground v.1.15,2013-01-16 23:51:00,
2013-01-16 18:54:00,33.9,33.6,30.19,ENE,57,0.0,0.0,99,0.00,,,0.24,Wunderground v.1.15,2013-01-16 23:54:00,
2013-01-16 18:55:00,33.9,33.6,30.20,ENE,57,0.0,0.0,99,0.00,,,0.24,Wunderground v.1.15,2013-01-16 23:55:00,
2013-01-16 18:56:00,34.0,33.7,30.20,ENE,57,0.0,0.0,99,0.00,,,0.24,Wunderground v.1.15,2013-01-16 23:56:00,
2013-01-16 18:59:00,34.0,33.7,30.21,ENE,57,0.0,0.0,99,0.00,,,0.24,Wunderground v.1.15,2013-01-16 23:59:00,
2013-01-16 19:00:00,34.0,33.7,30.20,ENE,57,0.0,0.0,99,0.00,,,0.24,Wunderground v.1.15,2013-01-17 00:00:00,
2013-01-16 19:01:00,33.9,33.6,30.20,ENE,57,0.0,0.0,99,0.00,,,0.24,Wunderground v.1.15,2013-01-17 00:01:00,
2013-01-16 19:06:00,34.0,33.7,30.20,ENE,57,0.0,0.0,99,0.00,,,0.24,Wunderground v.1.15,2013-01-17 00:06:00,
2013-01-16 19:07:00,34.0,33.7,30.20,ENE,57,0.0,0.0,99,0.00,,,0.24,Wunderground v.1.15,2013-01-17 00:07:00,
2013-01-16 19:08:00,34.0,33.7,30.20,ENE,57,0.0,0.0,99,0.00,,,0.24,Wunderground v.1.15,2013-01-17 00:08:00,
2013-01-16 19:11:00,34.1,33.8,30.20,NE,56,0.0,0.0,99,0.00,,,0.24,Wunderground v.1.15,2013-01-17 00:11:00,
2013-01-16 19:12:00,34.0,33.7,30.20,NE,56,0.0,0.0,99,0.00,,,0.24,Wunderground v.1.15,2013-01-17 00:12:00,
2013-01-16 19:15:00,34.0,33.7,30.20,NE,56,0.0,0.0,99,0.00,,,0.24,Wunderground v.1.15,2013-01-17 00:15:00,
2013-01-16 19:18:00,34.1,33.8,30.22,NE,55,0.0,1.0,99,0.00,,,0.24,Wunderground v.1.15,2013-01-17 00:18:00,
2013-01-16 19:19:00,34.1,33.8,30.22,NE,55,0.0,1.0,99,0.00,,,0.24,Wunderground v.1.15,2013-01-17 00:19:00,
2013-01-16 19:21:00,34.1,33.8,30.21,NE,55,0.0,0.0,99,0.00,,,0.24,Wunderground v.1.15,2013-01-17 00:21:00,
2013-01-16 19:24:00,34.1,33.8,30.20,NE,55,0.0,0.0,99,0.00,,,0.24,Wunderground v.1.15,2013-01-17 00:24:00,
2013-01-16 19:25:00,34.1,33.8,30.20,NE,54,0.0,0.0,99,0.00,,,0.24,Wunderground v.1.15,2013-01-17 00:25:00,
2013-01-16 19:26:00,34.1,33.8,30.21,NE,54,0.0,0.0,99,0.00,,,0.24,Wunderground v.1.15,2013-01-17 00:26:00,
2013-01-16 19:29:00,34.1,33.8,30.20,WNW,300,0.0,0.0,99,0.00,,,0.24,Wunderground v.1.15,2013-01-17 00:29:00,
2013-01-16 19:31:00,34.1,33.8,30.22,WNW,300,0.0,0.0,99,0.00,,,0.24,Wunderground v.1.15,2013-01-17 00:31:00,
2013-01-16 19:33:00,34.1,33.8,30.22,WNW,300,0.0,0.0,99,0.00,,,0.24,Wunderground v.1.15,2013-01-17 00:33:00,
2013-01-16 19:36:00,34.1,33.8,30.21,WNW,300,0.0,0.0,99,0.00,,,0.24,Wunderground v.1.15,2013-01-17 00:36:00,
2013-01-16 19:37:00,34.1,33.8,30.21,WNW,300,0.0,0.0,99,0.00,,,0.24,Wunderground v.1.15,2013-01-17 00:37:00,
2013-01-16 19:42:00,34.2,33.9,30.21,WNW,300,0.0,0.0,99,0.00,,,0.24,Wunderground v.1.15,2013-01-17 00:42:00,
2013-01-16 19:43:00,34.1,33.8,30.21,WNW,300,0.0,0.0,99,0.00,,,0.24,Wunderground v.1.15,2013-01-17 00:43:00,
2013-01-16 19:44:00,34.1,33.8,30.21,WNW,300,0.0,0.0,99,0.00,,,0.24,Wunderground v.1.15,2013-01-17 00:44:00,
2013-01-16 19:49:00,34.1,33.8,30.21,WNW,300,0.0,1.0,99,0.00,,,0.24,Wunderground v.1.15,2013-01-17 00:49:00,
2013-01-16 19:50:00,34.1,33.8,30.21,WNW,300,0.0,0.0,99,0.00,,,0.24,Wunderground v.1.15,2013-01-17 00:50:00,
2013-01-16 19:52:00,34.2,33.9,30.21,WNW,300,0.0,1.0,99,0.00,,,0.24,Wunderground v.1.15,2013-01-17 00:52:00,
2013-01-16 19:54:00,34.2,33.9,30.22,WNW,300,0.0,1.0,99,0.00,,,0.24,Wunderground v.1.15,2013-01-17 00:54:00,
2013-01-16 19:57:00,34.2,33.9,30.22,WNW,300,0.0,1.0,99,0.00,,,0.24,Wunderground v.1.15,2013-01-17 00:57:00,
2013-01-16 20:00:00,34.2,33.9,30.22,WNW,300,0.0,0.0,99,0.00,,,0.24,Wunderground v.1.15,2013-01-17 01:00:00,
2013-01-16 20:01:00,34.2,33.9,30.22,WNW,300,0.0,0.0,99,0.00,,,0.24,Wunderground v.1.15,2013-01-17 01:01:00,
2013-01-16 20:02:00,34.2,33.9,30.22,WNW,300,0.0,0.0,99,0.00,,,0.24,Wunderground v.1.15,2013-01-17 01:02:00,
2013-01-16 20:07:00,34.1,33.8,30.21,West,281,0.0,0.0,99,0.00,,,0.24,Wunderground v.1.15,2013-01-17 01:07:00,
2013-01-16 20:08:00,34.2,33.9,30.21,West,281,0.0,0.0,99,0.00,,,0.24,Wunderground v.1.15,2013-01-17 01:08:00,
2013-01-16 20:11:00,34.1,33.8,30.22,West,281,0.0,0.0,99,0.00,,,0.24,Wunderground v.1.15,2013-01-17 01:11:00,
2013-01-16 20:13:00,34.1,33.8,30.22,West,281,0.0,0.0,99,0.00,,,0.24,Wunderground v.1.15,2013-01-17 01:13:00,
2013-01-16 20:16:00,34.1,33.8,30.22,West,281,0.0,2.0,99,0.00,,,0.24,Wunderground v.1.15,2013-01-17 01:16:00,
2013-01-16 20:18:00,34.1,33.8,30.23,West,281,0.0,2.0,99,0.00,,,0.24,Wunderground v.1.15,2013-01-17 01:18:00,
2013-01-16 20:22:00,34.1,33.8,30.22,West,281,0.0,0.0,99,0.00,,,0.24,Wunderground v.1.15,2013-01-17 01:22:00,
2013-01-16 20:24:00,34.1,33.8,30.22,West,281,0.0,0.0,99,0.00,,,0.24,Wunderground v.1.15,2013-01-17 01:24:00,
2013-01-16 20:29:00,34.1,33.8,30.22,SW,236,0.0,3.0,99,0.00,,,0.24,Wunderground v.1.15,2013-01-17 01:29:00,
2013-01-16 20:30:00,34.1,33.8,30.22,SW,236,0.0,0.0,99,0.00,,,0.24,Wunderground v.1.15,2013-01-17 01:30:00,
2013-01-16 20:31:00,34.1,33.8,30.22,WNW,288,0.0,0.0,99,0.00,,,0.24,Wunderground v.1.15,2013-01-17 01:31:00,
2013-01-16 20:36:00,34.1,33.8,30.20,West,268,1.0,1.0,99,0.00,,,0.24,Wunderground v.1.15,2013-01-17 01:36:00,
2013-01-16 20:40:00,34.1,33.8,30.21,WNW,297,1.0,1.0,99,0.00,,,0.24,Wunderground v.1.15,2013-01-17 01:40:00,
2013-01-16 20:41:00,34.1,33.8,30.22,WNW,295,1.0,1.0,99,0.00,,,0.24,Wunderground v.1.15,2013-01-17 01:41:00,
2013-01-16 20:43:00,34.1,33.8,30.21,WNW,289,0.0,1.0,99,0.00,,,0.24,Wunderground v.1.15,2013-01-17 01:43:00,
2013-01-16 20:44:00,34.1,33.8,30.21,WNW,288,0.0,1.0,99,0.00,,,0.24,Wunderground v.1.15,2013-01-17 01:44:00,
2013-01-16 20:46:00,34.1,33.8,30.21,WNW,288,0.0,1.0,99,0.00,,,0.24,Wunderground v.1.15,2013-01-17 01:46:00,
2013-01-16 20:47:00,34.1,33.8,30.21,WNW,288,0.0,1.0,99,0.00,,,0.24,Wunderground v.1.15,2013-01-17 01:47:00,
2013-01-16 20:49:00,34.0,33.7,30.22,WNW,288,0.0,1.0,99,0.00,,,0.24,Wunderground v.1.15,2013-01-17 01:49:00,
2013-01-16 20:52:00,34.0,33.7,30.21,WNW,288,0.0,0.0,99,0.00,,,0.24,Wunderground v.1.15,2013-01-17 01:52:00,
2013-01-16 20:53:00,34.1,33.8,30.20,WNW,288,0.0,0.0,99,0.00,,,0.24,Wunderground v.1.15,2013-01-17 01:53:00,
2013-01-16 20:54:00,34.0,33.7,30.20,WNW,288,0.0,0.0,99,0.00,,,0.24,Wunderground v.1.15,2013-01-17 01:54:00,
2013-01-16 20:57:00,34.0,33.7,30.21,WNW,288,0.0,0.0,99,0.00,,,0.24,Wunderground v.1.15,2013-01-17 01:57:00,
2013-01-16 20:59:00,34.0,33.7,30.20,WNW,288,0.0,1.0,99,0.00,,,0.24,Wunderground v.1.15,2013-01-17 01:59:00,
2013-01-16 21:00:00,34.0,33.7,30.20,WNW,288,0.0,2.0,99,0.00,,,0.24,Wunderground v.1.15,2013-01-17 02:00:00,
2013-01-16 21:03:00,34.0,33.7,30.22,WSW,248,1.0,4.0,99,0.00,,,0.24,Wunderground v.1.15,2013-01-17 02:03:00,
2013-01-16 21:05:00,34.0,33.7,30.21,West,275,1.0,4.0,99,0.00,,,0.24,Wunderground v.1.15,2013-01-17 02:05:00,
2013-01-16 21:06:00,34.0,33.7,30.21,West,265,1.0,4.0,99,0.00,,,0.24,Wunderground v.1.15,2013-01-17 02:06:00,
2013-01-16 21:08:00,34.0,33.7,30.22,WSW,252,1.0,4.0,99,0.00,,,0.24,Wunderground v.1.15,2013-01-17 02:08:00,
2013-01-16 21:11:00,34.0,33.7,30.22,WNW,284,2.0,2.0,99,0.00,,,0.24,Wunderground v.1.15,2013-01-17 02:11:00,
2013-01-16 21:12:00,34.0,33.7,30.22,WNW,284,1.0,2.0,99,0.00,,,0.24,Wunderground v.1.15,2013-01-17 02:12:00,
2013-01-16 21:13:00,34.0,33.7,30.21,WNW,284,1.0,2.0,99,0.00,,,0.24,Wunderground v.1.15,2013-01-17 02:13:00,
2013-01-16 21:16:00,34.0,33.7,30.21,WNW,284,1.0,2.0,99,0.00,,,0.24,Wunderground v.1.15,2013-01-17 02:16:00,
2013-01-16 21:17:00,34.0,33.7,30.21,WNW,284,1.0,2.0,99,0.00,,,0.24,Wunderground v.1.15,2013-01-17 02:17:00,
2013-01-16 21:20:00,34.0,33.7,30.22,WNW,284,0.0,0.0,99,0.00,,,0.24,Wunderground v.1.15,2013-01-17 02:20:00,
2013-01-16 21:22:00,34.0,33.7,30.21,WNW,284,0.0,0.0,99,0.00,,,0.24,Wunderground v.1.15,2013-01-17 02:22:00,
2013-01-16 21:24:00,34.0,33.7,30.23,WNW,284,0.0,0.0,99,0.00,,,0.24,Wunderground v.1.15,2013-01-17 02:24:00,
2013-01-16 21:25:00,34.0,33.7,30.22,WNW,284,0.0,0.0,99,0.00,,,0.24,Wunderground v.1.15,2013-01-17 02:25:00,
2013-01-16 21:26:00,34.0,33.7,30.22,WNW,284,0.0,0.0,99,0.00,,,0.24,Wunderground v.1.15,2013-01-17 02:26:00,
2013-01-16 21:29:00,34.0,33.7,30.21,WNW,284,0.0,0.0,99,0.00,,,0.24,Wunderground v.1.15,2013-01-17 02:29:00,
2013-01-16 21:31:00,33.9,33.6,30.21,WNW,284,0.0,0.0,99,0.00,,,0.24,Wunderground v.1.15,2013-01-17 02:31:00,
2013-01-16 21:32:00,33.9,33.6,30.21,WNW,284,0.0,0.0,99,0.00,,,0.24,Wunderground v.1.15,2013-01-17 02:32:00,
2013-01-16 21:35:00,33.9,33.6,30.21,WNW,284,0.0,0.0,99,0.00,,,0.24,Wunderground v.1.15,2013-01-17 02:35:00,
2013-01-16 21:36:00,33.9,33.6,30.21,WNW,284,0.0,0.0,99,0.00,,,0.24,Wunderground v.1.15,2013-01-17 02:36:00,
2013-01-16 21:38:00,33.9,33.6,30.21,WNW,284,0.0,0.0,99,0.00,,,0.24,Wunderground v.1.15,2013-01-17 02:38:00,
2013-01-16 21:39:00,33.9,33.6,30.21,WNW,284,0.0,0.0,99,0.00,,,0.24,Wunderground v.1.15,2013-01-17 02:39:00,
2013-01-16 21:41:00,33.9,33.6,30.22,WNW,298,0.0,1.0,99,0.00,,,0.24,Wunderground v.1.15,2013-01-17 02:41:00,
2013-01-16 21:43:00,33.9,33.6,30.22,WNW,298,0.0,1.0,99,0.00,,,0.24,Wunderground v.1.15,2013-01-17 02:43:00,
2013-01-16 21:45:00,33.9,33.6,30.21,WNW,298,0.0,1.0,99,0.00,,,0.24,Wunderground v.1.15,2013-01-17 02:45:00,
2013-01-16 21:46:00,33.9,33.6,30.21,WNW,298,0.0,1.0,99,0.00,,,0.24,Wunderground v.1.15,2013-01-17 02:46:00,
2013-01-16 21:49:00,33.8,33.5,30.22,WNW,298,0.0,1.0,99,0.00,,,0.24,Wunderground v.1.15,2013-01-17 02:49:00,
2013-01-16 21:50:00,33.8,33.5,30.22,WNW,298,0.0,0.0,99,0.00,,,0.24,Wunderground v.1.15,2013-01-17 02:50:00,
2013-01-16 21:54:00,33.8,33.5,30.21,WNW,298,0.0,0.0,99,0.00,,,0.24,Wunderground v.1.15,2013-01-17 02:54:00,
2013-01-16 21:56:00,33.8,33.5,30.20,WNW,298,0.0,1.0,99,0.00,,,0.24,Wunderground v.1.15,2013-01-17 02:56:00,
2013-01-16 21:57:00,33.8,33.5,30.20,WNW,298,0.0,1.0,99,0.00,,,0.24,Wunderground v.1.15,2013-01-17 02:57:00,
2013-01-16 21:59:00,33.8,33.5,30.21,WNW,298,0.0,2.0,99,0.00,,,0.24,Wunderground v.1.15,2013-01-17 02:59:00,
2013-01-16 22:00:00,33.8,33.5,30.20,WNW,298,0.0,0.0,99,0.00,,,0.24,Wunderground v.1.15,2013-01-17 03:00:00,
2013-01-16 22:02:00,33.8,33.5,30.21,WNW,299,0.0,2.0,99,0.00,,,0.24,Wunderground v.1.15,2013-01-17 03:02:00,
2013-01-16 22:03:00,33.8,33.5,30.21,WNW,299,0.0,2.0,99,0.00,,,0.24,Wunderground v.1.15,2013-01-17 03:03:00,
2013-01-16 22:04:00,33.8,33.5,30.21,WNW,299,0.0,2.0,99,0.00,,,0.24,Wunderground v.1.15,2013-01-17 03:04:00,
2013-01-16 22:08:00,33.7,33.4,30.21,NW,321,1.0,2.0,99,0.00,,,0.24,Wunderground v.1.15,2013-01-17 03:08:00,
2013-01-16 22:09:00,33.7,33.4,30.21,NW,321,1.0,2.0,99,0.00,,,0.24,Wunderground v.1.15,2013-01-17 03:09:00,
2013-01-16 22:10:00,33.7,33.4,30.21,NW,321,0.0,1.0,99,0.00,,,0.24,Wunderground v.1.15,2013-01-17 03:10:00,
2013-01-16 22:11:00,33.7,33.4,30.21,NW,321,0.0,1.0,99,0.00,,,0.24,Wunderground v.1.15,2013-01-17 03:11:00,
2013-01-16 22:15:00,33.7,33.4,30.20,NW,321,1.0,2.0,99,0.00,,,0.24,Wunderground v.1.15,2013-01-17 03:15:00,
2013-01-16 22:19:00,33.7,33.4,30.20,NNW,344,0.0,3.0,99,0.00,,,0.24,Wunderground v.1.15,2013-01-17 03:19:00,
2013-01-16 22:21:00,33.6,33.3,30.20,NW,309,1.0,2.0,99,0.00,,,0.24,Wunderground v.1.15,2013-01-17 03:21:00,
2013-01-16 22:23:00,33.6,33.3,30.20,NW,310,1.0,2.0,99,0.00,,,0.24,Wunderground v.1.15,2013-01-17 03:23:00,
2013-01-16 22:24:00,33.6,33.1,30.20,NW,310,1.0,2.0,98,0.00,,,0.24,Wunderground v.1.15,2013-01-17 03:24:00,
2013-01-16 22:26:00,33.6,33.1,30.20,NW,310,1.0,2.0,98,0.00,,,0.24,Wunderground v.1.15,2013-01-17 03:26:00,
2013-01-16 22:29:00,33.6,33.1,30.20,NW,307,1.0,2.0,98,0.00,,,0.24,Wunderground v.1.15,2013-01-17 03:29:00,
2013-01-16 22:30:00,33.6,33.1,30.21,NW,307,1.0,2.0,98,0.00,,,0.24,Wunderground v.1.15,2013-01-17 03:30:00,
2013-01-16 22:34:00,33.6,33.1,30.21,NW,316,1.0,4.0,98,0.00,,,0.24,Wunderground v.1.15,2013-01-17 03:34:00,
2013-01-16 22:35:00,33.6,33.1,30.21,NW,314,1.0,4.0,98,0.00,,,0.24,Wunderground v.1.15,2013-01-17 03:35:00,
2013-01-16 22:37:00,33.6,33.1,30.21,NW,314,2.0,4.0,98,0.00,,,0.24,Wunderground v.1.15,2013-01-17 03:37:00,
2013-01-16 22:39:00,33.6,33.1,30.21,NW,314,1.0,4.0,98,0.00,,,0.24,Wunderground v.1.15,2013-01-17 03:39:00,
2013-01-16 22:40:00,33.5,33.0,30.21,NW,314,1.0,1.0,98,0.00,,,0.24,Wunderground v.1.15,2013-01-17 03:40:00,
2013-01-16 22:41:00,33.6,33.1,30.21,NW,314,1.0,1.0,98,0.00,,,0.24,Wunderground v.1.15,2013-01-17 03:41:00,
2013-01-16 22:43:00,33.6,33.1,30.22,NW,314,1.0,2.0,98,0.00,,,0.24,Wunderground v.1.15,2013-01-17 03:43:00,
2013-01-16 22:46:00,33.6,33.1,30.22,NW,314,1.0,2.0,98,0.00,,,0.24,Wunderground v.1.15,2013-01-17 03:46:00,
2013-01-16 22:47:00,33.6,33.1,30.22,NW,314,1.0,2.0,98,0.00,,,0.24,Wunderground v.1.15,2013-01-17 03:47:00,
2013-01-16 22:50:00,33.6,33.1,30.21,NW,314,1.0,1.0,98,0.00,,,0.24,Wunderground v.1.15,2013-01-17 03:50:00,
2013-01-16 22:52:00,33.5,33.0,30.21,NW,315,1.0,2.0,98,0.00,,,0.24,Wunderground v.1.15,2013-01-17 03:52:00,
2013-01-16 22:53:00,33.5,33.0,30.21,NW,317,1.0,4.0,98,0.00,,,0.24,Wunderground v.1.15,2013-01-17 03:53:00,
2013-01-16 22:54:00,33.5,33.0,30.21,NW,317,1.0,4.0,98,0.00,,,0.24,Wunderground v.1.15,2013-01-17 03:54:00,
2013-01-16 22:56:00,33.5,33.0,30.20,NW,317,1.0,4.0,98,0.00,,,0.24,Wunderground v.1.15,2013-01-17 03:56:00,
2013-01-16 22:58:00,33.5,33.0,30.21,NW,317,1.0,4.0,98,0.00,,,0.24,Wunderground v.1.15,2013-01-17 03:58:00,
2013-01-16 23:00:00,33.5,33.0,30.21,NW,317,1.0,2.0,98,0.00,,,0.24,Wunderground v.1.15,2013-01-17 04:00:00,
2013-01-16 23:01:00,33.5,33.0,30.21,NW,317,1.0,3.0,98,0.00,,,0.24,Wunderground v.1.15,2013-01-17 04:01:00,
2013-01-16 23:05:00,33.5,33.0,30.22,NW,318,1.0,5.0,98,0.00,,,0.24,Wunderground v.1.15,2013-01-17 04:05:00,
2013-01-16 23:11:00,33.5,33.0,30.21,NW,318,1.0,1.0,98,0.00,,,0.24,Wunderground v.1.15,2013-01-17 04:11:00,
2013-01-16 23:12:00,33.5,33.0,30.21,NW,318,1.0,1.0,98,0.00,,,0.24,Wunderground v.1.15,2013-01-17 04:12:00,
2013-01-16 23:13:00,33.5,33.0,30.21,NW,318,1.0,1.0,98,0.00,,,0.24,Wunderground v.1.15,2013-01-17 04:13:00,
2013-01-16 23:17:00,33.4,32.9,30.20,NW,318,0.0,1.0,98,0.00,,,0.24,Wunderground v.1.15,2013-01-17 04:17:00,
2013-01-16 23:18:00,33.4,32.9,30.20,NW,318,0.0,2.0,98,0.00,,,0.24,Wunderground v.1.15,2013-01-17 04:18:00,
2013-01-16 23:21:00,33.3,32.8,30.20,NW,318,1.0,1.0,98,0.00,,,0.24,Wunderground v.1.15,2013-01-17 04:21:00,
2013-01-16 23:22:00,33.3,32.8,30.20,NW,318,0.0,1.0,98,0.00,,,0.24,Wunderground v.1.15,2013-01-17 04:22:00,
2013-01-16 23:23:00,33.3,32.8,30.20,NW,318,0.0,1.0,98,0.00,,,0.24,Wunderground v.1.15,2013-01-17 04:23:00,
2013-01-16 23:27:00,33.3,32.8,30.20,NW,318,0.0,1.0,98,0.00,,,0.24,Wunderground v.1.15,2013-01-17 04:27:00,
2013-01-16 23:31:00,33.3,32.8,30.22,NW,309,0.0,3.0,98,0.00,,,0.24,Wunderground v.1.15,2013-01-17 04:31:00,
2013-01-16 23:32:00,33.3,32.8,30.22,NW,309,1.0,3.0,98,0.00,,,0.24,Wunderground v.1.15,2013-01-17 04:32:00,
2013-01-16 23:34:00,33.3,32.8,30.22,NW,309,1.0,3.0,98,0.00,,,0.24,Wunderground v.1.15,2013-01-17 04:34:00,
2013-01-16 23:37:00,33.3,32.8,30.23,NW,309,1.0,3.0,98,0.00,,,0.24,Wunderground v.1.15,2013-01-17 04:37:00,
2013-01-16 23:38:00,33.3,32.8,30.23,NW,309,1.0,3.0,98,0.00,,,0.24,Wunderground v.1.15,2013-01-17 04:38:00,
2013-01-16 23:41:00,33.2,32.7,30.23,NW,309,1.0,1.0,98,0.00,,,0.24,Wunderground v.1.15,2013-01-17 04:41:00,
2013-01-16 23:44:00,33.2,32.7,30.23,NW,309,0.0,1.0,98,0.00,,,0.24,Wunderground v.1.15,2013-01-17 04:44:00,
2013-01-16 23:46:00,33.2,32.7,30.24,NW,309,0.0,1.0,98,0.00,,,0.24,Wunderground v.1.15,2013-01-17 04:46:00,
2013-01-16 23:49:00,33.2,32.7,30.23,NW,309,0.0,1.0,98,0.00,,,0.24,Wunderground v.1.15,2013-01-17 04:49:00,
2013-01-16 23:50:00,33.2,32.7,30.23,NW,309,0.0,0.0,98,0.00,,,0.24,Wunderground v.1.15,2013-01-17 04:50:00,
2013-01-16 23:52:00,33.2,32.7,30.23,NW,309,0.0,0.0,98,0.00,,,0.24,Wunderground v.1.15,2013-01-17 04:52:00,
2013-01-16 23:54:00,33.2,32.7,30.23,NW,309,0.0,0.0,98,0.00,,,0.24,Wunderground v.1.15,2013-01-17 04:54:00,
2013-01-16 23:57:00,33.1,32.6,30.23,NW,309,0.0,0.0,98,0.00,,,0.24,Wunderground v.1.15,2013-01-17 04:57:00,
2013-01-16 23:58:00,33.1,32.6,30.23,NW,309,0.0,0.0,98,0.00,,,0.24,Wunderground v.1.15,2013-01-17 04:58:00,